Time,TemperatureF,DewpointF,PressureIn,WindDirection,WindDirectionDegrees,WindSpeedMPH,WindSpeedGustMPH,Humidity,HourlyPrecipIn,Conditions,Clouds,dailyrainin,SoftwareType,DateUTC
2013-06-23 00:00:00,64.9,62.9,30.09,NNW,338,0.0,2.9,93,0.00,,SKC,-99.99,VWS V14.01,2013-06-23 04:00:00,
2013-06-23 00:01:00,64.9,62.9,30.09,WSW,248,0.0,2.9,93,0.00,,SKC,-99.99,VWS V14.01,2013-06-23 04:01:00,
2013-06-23 00:02:00,64.8,62.7,30.09,North,0,0.0,2.9,93,0.00,,SKC,-99.99,VWS V14.01,2013-06-23 04:02:00,
2013-06-23 00:03:00,64.8,62.7,30.09,North,0,0.0,2.9,93,0.00,,SKC,-99.99,VWS V14.01,2013-06-23 04:03:00,
2013-06-23 00:04:00,64.8,62.7,30.09,NE,45,0.0,2.2,93,0.00,,SKC,-99.99,VWS V14.01,2013-06-23 04:04:00,
2013-06-23 00:05:00,64.8,62.4,30.09,NNW,338,0.9,2.2,92,0.00,,SKC,-99.99,VWS V14.01,2013-06-23 04:05:00,
2013-06-23 00:06:00,64.8,62.4,30.09,NW,315,0.0,2.2,92,0.00,,SKC,-99.99,VWS V14.01,2013-06-23 04:06:00,
2013-06-23 00:07:00,64.8,62.4,30.09,North,0,0.0,2.2,92,0.00,,SKC,-99.99,VWS V14.01,2013-06-23 04:07:00,
2013-06-23 00:08:00,64.8,62.7,30.09,NW,315,0.9,1.1,93,0.00,,SKC,-99.99,VWS V14.01,2013-06-23 04:08:00,
2013-06-23 00:09:00,64.6,62.5,30.09,NNW,338,0.0,1.1,93,0.00,,SKC,-99.99,VWS V14.01,2013-06-23 04:09:00,
2013-06-23 00:10:00,64.6,62.5,30.09,North,0,2.5,2.5,93,0.00,,SKC,-99.99,VWS V14.01,2013-06-23 04:10:00,
2013-06-23 00:11:00,64.6,62.5,30.09,North,0,2.0,2.5,93,0.00,,SKC,-99.99,VWS V14.01,2013-06-23 04:11:00,
2013-06-23 00:12:00,64.6,62.5,30.09,NNE,22,1.6,2.5,93,0.00,,SKC,-99.99,VWS V14.01,2013-06-23 04:12:00,
2013-06-23 00:13:00,64.6,62.5,30.09,North,0,0.0,2.5,93,0.00,,SKC,-99.99,VWS V14.01,2013-06-23 04:13:00,
2013-06-23 00:14:00,64.6,62.5,30.09,NE,45,0.0,2.5,93,0.00,,SKC,-99.99,VWS V14.01,2013-06-23 04:14:00,
2013-06-23 00:15:00,64.6,62.5,30.09,NE,45,0.0,2.5,93,0.00,,SKC,-99.99,VWS V14.01,2013-06-23 04:15:00,
2013-06-23 00:16:00,64.4,62.3,30.09,NE,45,0.0,2.5,93,0.00,,SKC,-99.99,VWS V14.01,2013-06-23 04:16:00,
2013-06-23 00:17:00,64.4,62.3,30.09,NNE,22,0.0,2.5,93,0.00,,SKC,-99.99,VWS V14.01,2013-06-23 04:17:00,
2013-06-23 00:18:00,64.4,62.0,30.09,NNE,22,0.0,2.5,92,0.00,,SKC,-99.99,VWS V14.01,2013-06-23 04:18:00,
2013-06-23 00:19:00,64.4,62.0,30.09,NE,45,0.0,2.5,92,0.00,,SKC,-99.99,VWS V14.01,2013-06-23 04:19:00,
2013-06-23 00:20:00,64.4,62.0,30.09,NE,45,0.0,2.5,92,0.00,,SKC,-99.99,VWS V14.01,2013-06-23 04:20:00,
2013-06-23 00:21:00,64.4,62.3,30.09,NNE,22,2.9,2.9,93,0.00,,SKC,-99.99,VWS V14.01,2013-06-23 04:21:00,
2013-06-23 00:22:00,64.4,62.3,30.09,NNW,338,0.0,2.9,93,0.00,,SKC,-99.99,VWS V14.01,2013-06-23 04:22:00,
2013-06-23 00:23:00,64.4,62.3,30.09,NNE,22,2.5,2.9,93,0.00,,SKC,-99.99,VWS V14.01,2013-06-23 04:23:00,
2013-06-23 00:24:00,64.2,62.2,30.09,NE,45,2.7,2.9,93,0.00,,SKC,-99.99,VWS V14.01,2013-06-23 04:24:00,
2013-06-23 00:25:00,64.2,62.2,30.09,NNW,338,0.0,2.9,93,0.00,,SKC,-99.99,VWS V14.01,2013-06-23 04:25:00,
2013-06-23 00:26:00,64.2,62.2,30.09,North,0,1.6,2.9,93,0.00,,SKC,-99.99,VWS V14.01,2013-06-23 04:26:00,
2013-06-23 00:27:00,64.2,62.2,30.12,NNE,22,2.5,2.9,93,0.00,,SKC,-99.99,VWS V14.01,2013-06-23 04:27:00,
2013-06-23 00:28:00,64.2,62.2,30.12,NW,315,0.0,2.9,93,0.00,,SKC,-99.99,VWS V14.01,2013-06-23 04:28:00,
2013-06-23 00:29:00,64.2,62.2,30.12,NW,315,0.0,2.9,93,0.00,,SKC,-99.99,VWS V14.01,2013-06-23 04:29:00,
2013-06-23 00:30:00,64.2,62.2,30.12,NW,315,0.0,2.9,93,0.00,,SKC,-99.99,VWS V14.01,2013-06-23 04:30:00,
2013-06-23 00:31:00,64.2,62.2,30.12,NW,315,0.0,2.9,93,0.00,,SKC,-99.99,VWS V14.01,2013-06-23 04:31:00,
2013-06-23 00:32:00,64.2,62.2,30.12,NW,315,0.0,2.9,93,0.00,,SKC,-99.99,VWS V14.01,2013-06-23 04:32:00,
2013-06-23 00:33:00,64.2,62.2,30.12,West,270,0.0,2.9,93,0.00,,SKC,-99.99,VWS V14.01,2013-06-23 04:33:00,
2013-06-23 00:34:00,64.2,62.2,30.12,West,270,0.0,2.9,93,0.00,,SKC,-99.99,VWS V14.01,2013-06-23 04:34:00,
2013-06-23 00:35:00,64.2,62.2,30.12,West,270,0.0,2.9,93,0.00,,SKC,-99.99,VWS V14.01,2013-06-23 04:35:00,
2013-06-23 00:36:00,64.2,62.2,30.12,West,270,0.0,2.9,93,0.00,,SKC,-99.99,VWS V14.01,2013-06-23 04:36:00,
2013-06-23 00:37:00,64.2,62.2,30.12,West,270,0.0,2.9,93,0.00,,SKC,-99.99,VWS V14.01,2013-06-23 04:37:00,
2013-06-23 00:38:00,64.2,62.2,30.12,West,270,0.0,2.9,93,0.00,,SKC,-99.99,VWS V14.01,2013-06-23 04:38:00,
2013-06-23 00:39:00,64.0,62.0,30.12,West,270,0.0,2.9,93,0.00,,SKC,-99.99,VWS V14.01,2013-06-23 04:39:00,
2013-06-23 00:40:00,63.9,61.8,30.12,West,270,0.0,2.9,93,0.00,,SKC,-99.99,VWS V14.01,2013-06-23 04:40:00,
2013-06-23 00:41:00,63.9,61.8,30.12,West,270,0.0,2.7,93,0.00,,SKC,-99.99,VWS V14.01,2013-06-23 04:41:00,
2013-06-23 00:42:00,63.9,61.8,30.12,North,0,0.0,2.7,93,0.00,,SKC,-99.99,VWS V14.01,2013-06-23 04:42:00,
2013-06-23 00:43:00,63.9,61.8,30.12,North,0,0.0,2.7,93,0.00,,SKC,-99.99,VWS V14.01,2013-06-23 04:43:00,
2013-06-23 00:44:00,63.9,61.8,30.12,North,0,0.0,2.5,93,0.00,,SKC,-99.99,VWS V14.01,2013-06-23 04:44:00,
2013-06-23 00:45:00,63.7,61.6,30.12,North,0,0.0,2.5,93,0.00,,SKC,-99.99,VWS V14.01,2013-06-23 04:45:00,
2013-06-23 00:46:00,63.7,61.6,30.12,North,0,0.0,2.5,93,0.00,,SKC,-99.99,VWS V14.01,2013-06-23 04:46:00,
2013-06-23 00:47:00,63.7,61.6,30.12,ENE,68,0.0,0.0,93,0.00,,SKC,-99.99,VWS V14.01,2013-06-23 04:47:00,
2013-06-23 00:48:00,63.7,61.6,30.12,ENE,68,0.0,0.0,93,0.00,,SKC,-99.99,VWS V14.01,2013-06-23 04:48:00,
2013-06-23 00:49:00,63.7,61.6,30.12,ENE,68,0.0,0.0,93,0.00,,SKC,-99.99,VWS V14.01,2013-06-23 04:49:00,
2013-06-23 00:50:00,63.5,61.4,30.12,ENE,68,0.0,0.0,93,0.00,,SKC,-99.99,VWS V14.01,2013-06-23 04:50:00,
2013-06-23 00:51:00,63.5,61.4,30.12,ENE,68,0.0,0.0,93,0.00,,SKC,-99.99,VWS V14.01,2013-06-23 04:51:00,
2013-06-23 00:53:00,63.5,61.4,30.12,ENE,68,0.0,0.0,93,0.00,,SKC,-99.99,VWS V14.01,2013-06-23 04:53:00,
2013-06-23 00:54:00,63.5,61.4,30.12,East,90,0.0,0.0,93,0.00,,SKC,-99.99,VWS V14.01,2013-06-23 04:54:00,
2013-06-23 00:55:00,63.5,61.4,30.12,ESE,112,0.0,0.0,93,0.00,,SKC,-99.99,VWS V14.01,2013-06-23 04:55:00,
2013-06-23 00:56:00,63.5,61.4,30.12,ESE,112,0.0,0.0,93,0.00,,SKC,-99.99,VWS V14.01,2013-06-23 04:56:00,
2013-06-23 00:58:00,63.3,61.3,30.12,East,90,0.0,0.0,93,0.00,,SKC,-99.99,VWS V14.01,2013-06-23 04:58:00,
2013-06-23 00:59:00,63.3,61.3,30.12,East,90,0.0,0.0,93,0.00,,SKC,-99.99,VWS V14.01,2013-06-23 04:59:00,
2013-06-23 01:00:00,63.3,61.3,30.12,East,90,0.0,0.0,93,0.00,,SKC,-99.99,VWS V14.01,2013-06-23 05:00:00,
2013-06-23 01:02:00,63.3,61.3,30.12,East,90,0.0,0.0,93,0.00,,SKC,-99.99,VWS V14.01,2013-06-23 05:02:00,
2013-06-23 01:04:00,63.1,61.1,30.12,ESE,112,0.0,0.0,93,0.00,,SKC,-99.99,VWS V14.01,2013-06-23 05:04:00,
2013-06-23 01:05:00,63.1,61.1,30.12,ESE,112,0.0,0.0,93,0.00,,SKC,-99.99,VWS V14.01,2013-06-23 05:05:00,
2013-06-23 01:06:00,63.1,61.1,30.12,ESE,112,0.0,0.0,93,0.00,,SKC,-99.99,VWS V14.01,2013-06-23 05:06:00,
2013-06-23 01:07:00,63.1,61.1,30.12,ESE,112,0.0,0.0,93,0.00,,SKC,-99.99,VWS V14.01,2013-06-23 05:07:00,
2013-06-23 01:09:00,63.1,61.1,30.12,ESE,112,0.0,0.0,93,0.00,,SKC,-99.99,VWS V14.01,2013-06-23 05:09:00,
2013-06-23 01:10:00,63.1,61.1,30.12,ESE,112,0.0,0.0,93,0.00,,SKC,-99.99,VWS V14.01,2013-06-23 05:10:00,
2013-06-23 01:11:00,63.1,61.1,30.12,ESE,112,0.0,0.0,93,0.00,,SKC,-99.99,VWS V14.01,2013-06-23 05:11:00,
2013-06-23 01:12:00,63.1,61.1,30.12,ESE,112,0.0,0.0,93,0.00,,SKC,-99.99,VWS V14.01,2013-06-23 05:12:00,
2013-06-23 01:13:00,63.1,61.1,30.09,ESE,112,0.0,0.0,93,0.00,,SKC,-99.99,VWS V14.01,2013-06-23 05:13:00,
2013-06-23 01:14:00,63.1,61.1,30.09,SSE,158,0.0,0.0,93,0.00,,SKC,-99.99,VWS V14.01,2013-06-23 05:14:00,
2013-06-23 01:15:00,63.1,61.1,30.09,SE,135,0.9,0.9,93,0.00,,SKC,-99.99,VWS V14.01,2013-06-23 05:15:00,
2013-06-23 01:16:00,63.0,60.9,30.09,SE,135,0.0,0.9,93,0.00,,SKC,-99.99,VWS V14.01,2013-06-23 05:16:00,
2013-06-23 01:17:00,63.0,60.9,30.09,SE,135,0.0,0.9,93,0.00,,SKC,-99.99,VWS V14.01,2013-06-23 05:17:00,
2013-06-23 01:18:00,63.0,60.9,30.09,SE,135,0.0,0.9,93,0.00,,SKC,-99.99,VWS V14.01,2013-06-23 05:18:00,
2013-06-23 01:19:00,63.0,60.9,30.09,SE,135,0.0,0.9,93,0.00,,SKC,-99.99,VWS V14.01,2013-06-23 05:19:00,
2013-06-23 01:20:00,63.0,60.9,30.09,SE,135,0.0,0.9,93,0.00,,SKC,-99.99,VWS V14.01,2013-06-23 05:20:00,
2013-06-23 01:21:00,63.0,60.9,30.09,SE,135,0.0,0.9,93,0.00,,SKC,-99.99,VWS V14.01,2013-06-23 05:21:00,
2013-06-23 01:22:00,63.0,60.9,30.09,SE,135,0.0,0.9,93,0.00,,SKC,-99.99,VWS V14.01,2013-06-23 05:22:00,
2013-06-23 01:23:00,63.0,60.9,30.09,SE,135,0.0,0.9,93,0.00,,SKC,-99.99,VWS V14.01,2013-06-23 05:23:00,
2013-06-23 01:24:00,63.0,60.9,30.09,SE,135,0.0,0.9,93,0.00,,SKC,-99.99,VWS V14.01,2013-06-23 05:24:00,
2013-06-23 01:25:00,63.0,60.9,30.09,SE,135,0.0,0.9,93,0.00,,SKC,-99.99,VWS V14.01,2013-06-23 05:25:00,
2013-06-23 01:26:00,62.8,60.7,30.09,South,180,0.0,0.9,93,0.00,,SKC,-99.99,VWS V14.01,2013-06-23 05:26:00,
2013-06-23 01:27:00,62.8,60.7,30.09,North,0,0.0,0.9,93,0.00,,SKC,-99.99,VWS V14.01,2013-06-23 05:27:00,
2013-06-23 01:28:00,62.8,60.7,30.09,North,0,0.0,0.9,93,0.00,,SKC,-99.99,VWS V14.01,2013-06-23 05:28:00,
2013-06-23 01:29:00,62.8,60.7,30.09,NNW,338,0.0,0.9,93,0.00,,SKC,-99.99,VWS V14.01,2013-06-23 05:29:00,
2013-06-23 01:30:00,62.8,60.7,30.09,NNW,338,0.0,0.9,93,0.00,,SKC,-99.99,VWS V14.01,2013-06-23 05:30:00,
2013-06-23 01:31:00,62.8,60.7,30.09,NNW,338,0.0,0.9,93,0.00,,SKC,-99.99,VWS V14.01,2013-06-23 05:31:00,
2013-06-23 01:32:00,62.8,60.7,30.09,NNW,338,0.0,0.9,93,0.00,,SKC,-99.99,VWS V14.01,2013-06-23 05:32:00,
2013-06-23 01:33:00,62.8,60.7,30.09,NNW,338,0.0,0.9,93,0.00,,SKC,-99.99,VWS V14.01,2013-06-23 05:33:00,
2013-06-23 01:34:00,62.8,60.7,30.09,NNW,338,0.0,0.9,93,0.00,,SKC,-99.99,VWS V14.01,2013-06-23 05:34:00,
2013-06-23 01:35:00,62.8,60.7,30.09,NNW,338,0.0,0.0,93,0.00,,SKC,-99.99,VWS V14.01,2013-06-23 05:35:00,
2013-06-23 01:36:00,62.6,60.5,30.09,NNW,338,0.0,0.0,93,0.00,,SKC,-99.99,VWS V14.01,2013-06-23 05:36:00,
2013-06-23 01:37:00,62.6,60.8,30.09,East,90,0.0,0.0,94,0.00,,SKC,-99.99,VWS V14.01,2013-06-23 05:37:00,
2013-06-23 01:38:00,62.6,60.8,30.09,East,90,0.0,0.0,94,0.00,,SKC,-99.99,VWS V14.01,2013-06-23 05:38:00,
2013-06-23 01:39:00,62.6,60.8,30.09,East,90,0.0,0.0,94,0.00,,SKC,-99.99,VWS V14.01,2013-06-23 05:39:00,
2013-06-23 01:40:00,62.6,60.8,30.09,East,90,0.0,0.0,94,0.00,,SKC,-99.99,VWS V14.01,2013-06-23 05:40:00,
2013-06-23 01:41:00,62.6,60.8,30.09,East,90,0.0,0.0,94,0.00,,SKC,-99.99,VWS V14.01,2013-06-23 05:41:00,
2013-06-23 01:42:00,62.6,60.8,30.09,East,90,0.0,0.0,94,0.00,,SKC,-99.99,VWS V14.01,2013-06-23 05:42:00,
2013-06-23 01:43:00,62.6,60.8,30.09,East,90,0.0,0.0,94,0.00,,SKC,-99.99,VWS V14.01,2013-06-23 05:43:00,
2013-06-23 01:44:00,62.6,60.8,30.09,East,90,0.0,0.0,94,0.00,,SKC,-99.99,VWS V14.01,2013-06-23 05:44:00,
2013-06-23 01:45:00,62.6,60.8,30.09,East,90,0.0,0.0,94,0.00,,SKC,-99.99,VWS V14.01,2013-06-23 05:45:00,
2013-06-23 01:46:00,62.6,60.8,30.09,East,90,0.0,0.0,94,0.00,,SKC,-99.99,VWS V14.01,2013-06-23 05:46:00,
2013-06-23 01:47:00,62.4,60.7,30.09,SE,135,0.0,0.0,94,0.00,,SKC,-99.99,VWS V14.01,2013-06-23 05:47:00,
2013-06-23 01:48:00,62.4,60.7,30.09,SE,135,0.0,0.0,94,0.00,,SKC,-99.99,VWS V14.01,2013-06-23 05:48:00,
2013-06-23 01:49:00,62.4,60.7,30.09,SE,135,1.6,1.6,94,0.00,,SKC,-99.99,VWS V14.01,2013-06-23 05:49:00,
2013-06-23 01:50:00,62.4,60.7,30.09,SE,135,0.0,1.6,94,0.00,,SKC,-99.99,VWS V14.01,2013-06-23 05:50:00,
2013-06-23 01:51:00,62.4,60.7,30.09,SE,135,0.0,1.6,94,0.00,,SKC,-99.99,VWS V14.01,2013-06-23 05:51:00,
2013-06-23 01:52:00,62.4,60.7,30.09,SE,135,0.0,1.6,94,0.00,,SKC,-99.99,VWS V14.01,2013-06-23 05:52:00,
2013-06-23 01:53:00,62.2,60.5,30.09,SE,135,0.0,1.6,94,0.00,,SKC,-99.99,VWS V14.01,2013-06-23 05:53:00,
2013-06-23 01:54:00,62.2,60.5,30.09,ESE,112,0.0,1.6,94,0.00,,SKC,-99.99,VWS V14.01,2013-06-23 05:54:00,
2013-06-23 01:55:00,62.2,60.5,30.09,ESE,112,0.0,1.6,94,0.00,,SKC,-99.99,VWS V14.01,2013-06-23 05:55:00,
2013-06-23 01:56:00,62.2,60.5,30.09,ESE,112,0.0,1.6,94,0.00,,SKC,-99.99,VWS V14.01,2013-06-23 05:56:00,
2013-06-23 01:57:00,62.2,60.5,30.09,ESE,112,0.0,1.6,94,0.00,,SKC,-99.99,VWS V14.01,2013-06-23 05:57:00,
2013-06-23 01:58:00,62.2,60.5,30.09,ESE,112,0.0,1.6,94,0.00,,SKC,-99.99,VWS V14.01,2013-06-23 05:58:00,
2013-06-23 01:59:00,62.2,60.5,30.09,ESE,112,0.0,1.6,94,0.00,,SKC,-99.99,VWS V14.01,2013-06-23 05:59:00,
2013-06-23 02:00:00,62.2,60.5,30.09,ESE,112,0.0,1.6,94,0.00,,SKC,-99.99,VWS V14.01,2013-06-23 06:00:00,
2013-06-23 02:01:00,62.2,60.5,30.09,ESE,112,0.0,1.6,94,0.00,,SKC,-99.99,VWS V14.01,2013-06-23 06:01:00,
2013-06-23 02:02:00,62.2,60.5,30.09,SE,135,0.0,1.6,94,0.00,,SKC,-99.99,VWS V14.01,2013-06-23 06:02:00,
2013-06-23 02:03:00,62.2,60.5,30.09,SE,135,0.0,1.6,94,0.00,,SKC,-99.99,VWS V14.01,2013-06-23 06:03:00,
2013-06-23 02:04:00,62.2,60.5,30.09,SE,135,0.0,1.6,94,0.00,,SKC,-99.99,VWS V14.01,2013-06-23 06:04:00,
2013-06-23 02:05:00,62.2,60.5,30.09,SE,135,0.0,1.6,94,0.00,,SKC,-99.99,VWS V14.01,2013-06-23 06:05:00,
2013-06-23 02:06:00,62.2,60.5,30.09,SE,135,0.0,1.6,94,0.00,,SKC,-99.99,VWS V14.01,2013-06-23 06:06:00,
2013-06-23 02:07:00,62.2,60.5,30.09,SE,135,0.0,1.6,94,0.00,,SKC,-99.99,VWS V14.01,2013-06-23 06:07:00,
2013-06-23 02:08:00,62.2,60.5,30.09,ESE,112,0.0,1.6,94,0.00,,SKC,-99.99,VWS V14.01,2013-06-23 06:08:00,
2013-06-23 02:09:00,62.2,60.5,30.09,ESE,112,0.0,0.0,94,0.00,,SKC,-99.99,VWS V14.01,2013-06-23 06:09:00,
2013-06-23 02:10:00,62.2,60.5,30.09,SE,135,0.0,0.0,94,0.00,,SKC,-99.99,VWS V14.01,2013-06-23 06:10:00,
2013-06-23 02:11:00,62.2,60.5,30.09,SE,135,0.0,0.0,94,0.00,,SKC,-99.99,VWS V14.01,2013-06-23 06:11:00,
2013-06-23 02:12:00,62.2,60.5,30.09,ESE,112,0.0,0.0,94,0.00,,SKC,-99.99,VWS V14.01,2013-06-23 06:12:00,
2013-06-23 02:14:00,62.2,60.8,30.09,ESE,112,0.0,0.0,95,0.00,,SKC,-99.99,VWS V14.01,2013-06-23 06:14:00,
2013-06-23 02:15:00,62.2,60.8,30.09,ESE,112,0.0,0.0,95,0.00,,SKC,-99.99,VWS V14.01,2013-06-23 06:15:00,
2013-06-23 02:16:00,62.2,60.8,30.09,West,270,0.0,0.0,95,0.00,,SKC,-99.99,VWS V14.01,2013-06-23 06:16:00,
2013-06-23 02:17:00,62.2,60.8,30.09,West,270,0.0,0.0,95,0.00,,SKC,-99.99,VWS V14.01,2013-06-23 06:17:00,
2013-06-23 02:18:00,62.2,60.8,30.09,West,270,0.0,0.0,95,0.00,,SKC,-99.99,VWS V14.01,2013-06-23 06:18:00,
2013-06-23 02:19:00,62.1,60.3,30.09,West,270,0.0,0.0,94,0.00,,SKC,-99.99,VWS V14.01,2013-06-23 06:19:00,
2013-06-23 02:20:00,62.1,60.3,30.09,West,270,0.0,0.0,94,0.00,,SKC,-99.99,VWS V14.01,2013-06-23 06:20:00,
2013-06-23 02:21:00,62.1,60.3,30.09,West,270,0.0,0.0,94,0.00,,SKC,-99.99,VWS V14.01,2013-06-23 06:21:00,
2013-06-23 02:22:00,62.1,60.3,30.09,West,270,0.0,0.0,94,0.00,,SKC,-99.99,VWS V14.01,2013-06-23 06:22:00,
2013-06-23 02:23:00,62.1,60.3,30.09,West,270,0.0,0.0,94,0.00,,SKC,-99.99,VWS V14.01,2013-06-23 06:23:00,
2013-06-23 02:24:00,62.1,60.3,30.09,West,270,0.0,0.0,94,0.00,,SKC,-99.99,VWS V14.01,2013-06-23 06:24:00,
2013-06-23 02:25:00,62.1,60.3,30.09,SW,225,0.0,0.0,94,0.00,,SKC,-99.99,VWS V14.01,2013-06-23 06:25:00,
2013-06-23 02:26:00,62.1,60.3,30.09,South,180,0.0,0.0,94,0.00,,SKC,-99.99,VWS V14.01,2013-06-23 06:26:00,
2013-06-23 02:27:00,61.9,60.1,30.09,South,180,0.0,0.0,94,0.00,,SKC,-99.99,VWS V14.01,2013-06-23 06:27:00,
2013-06-23 02:28:00,61.9,60.1,30.09,South,180,0.0,0.0,94,0.00,,SKC,-99.99,VWS V14.01,2013-06-23 06:28:00,
2013-06-23 02:29:00,61.9,60.1,30.09,South,180,0.0,0.0,94,0.00,,SKC,-99.99,VWS V14.01,2013-06-23 06:29:00,
2013-06-23 02:30:00,61.9,60.1,30.09,South,180,0.0,0.0,94,0.00,,SKC,-99.99,VWS V14.01,2013-06-23 06:30:00,
2013-06-23 02:31:00,61.9,60.1,30.09,East,90,0.0,0.0,94,0.00,,SKC,-99.99,VWS V14.01,2013-06-23 06:31:00,
2013-06-23 02:32:00,61.9,60.1,30.09,East,90,1.1,1.1,94,0.00,,SKC,-99.99,VWS V14.01,2013-06-23 06:32:00,
2013-06-23 02:33:00,61.9,60.1,30.09,South,180,0.0,1.1,94,0.00,,SKC,-99.99,VWS V14.01,2013-06-23 06:33:00,
2013-06-23 02:34:00,61.9,60.1,30.09,East,90,0.0,1.1,94,0.00,,SKC,-99.99,VWS V14.01,2013-06-23 06:34:00,
2013-06-23 02:35:00,61.9,60.1,30.09,East,90,0.0,1.1,94,0.00,,SKC,-99.99,VWS V14.01,2013-06-23 06:35:00,
2013-06-23 02:36:00,61.9,60.1,30.09,SE,135,0.0,1.1,94,0.00,,SKC,-99.99,VWS V14.01,2013-06-23 06:36:00,
2013-06-23 02:37:00,61.9,60.1,30.09,SE,135,0.0,1.1,94,0.00,,SKC,-99.99,VWS V14.01,2013-06-23 06:37:00,
2013-06-23 02:38:00,61.9,60.4,30.09,ESE,112,0.0,1.1,95,0.00,,SKC,-99.99,VWS V14.01,2013-06-23 06:38:00,
2013-06-23 02:39:00,61.9,60.4,30.09,SE,135,0.0,1.1,95,0.00,,SKC,-99.99,VWS V14.01,2013-06-23 06:39:00,
2013-06-23 02:40:00,61.9,60.4,30.09,East,90,0.0,1.1,95,0.00,,SKC,-99.99,VWS V14.01,2013-06-23 06:40:00,
2013-06-23 02:41:00,61.9,60.4,30.09,East,90,0.0,1.1,95,0.00,,SKC,-99.99,VWS V14.01,2013-06-23 06:41:00,
2013-06-23 02:42:00,61.9,60.4,30.09,East,90,0.0,1.1,95,0.00,,SKC,-99.99,VWS V14.01,2013-06-23 06:42:00,
2013-06-23 02:43:00,61.9,60.4,30.09,East,90,0.0,1.1,95,0.00,,SKC,-99.99,VWS V14.01,2013-06-23 06:43:00,
2013-06-23 02:44:00,61.9,60.4,30.09,East,90,0.0,1.1,95,0.00,,SKC,-99.99,VWS V14.01,2013-06-23 06:44:00,
2013-06-23 02:45:00,61.9,60.4,30.09,SE,135,0.0,1.1,95,0.00,,SKC,-99.99,VWS V14.01,2013-06-23 06:45:00,
2013-06-23 02:46:00,61.9,60.4,30.09,SE,135,0.0,1.1,95,0.00,,SKC,-99.99,VWS V14.01,2013-06-23 06:46:00,
2013-06-23 02:47:00,61.9,60.4,30.09,SE,135,0.0,1.1,95,0.00,,SKC,-99.99,VWS V14.01,2013-06-23 06:47:00,
2013-06-23 02:48:00,61.9,60.4,30.09,SE,135,0.0,1.1,95,0.00,,SKC,-99.99,VWS V14.01,2013-06-23 06:48:00,
2013-06-23 02:49:00,61.9,60.4,30.09,SE,135,0.0,1.1,95,0.00,,SKC,-99.99,VWS V14.01,2013-06-23 06:49:00,
2013-06-23 02:50:00,61.9,60.4,30.09,SE,135,0.0,1.1,95,0.00,,SKC,-99.99,VWS V14.01,2013-06-23 06:50:00,
2013-06-23 02:51:00,61.9,60.4,30.09,SE,135,0.0,1.1,95,0.00,,SKC,-99.99,VWS V14.01,2013-06-23 06:51:00,
2013-06-23 02:52:00,61.9,60.4,30.09,SE,135,0.0,0.0,95,0.00,,SKC,-99.99,VWS V14.01,2013-06-23 06:52:00,
2013-06-23 02:53:00,61.9,60.4,30.09,ESE,112,1.6,1.6,95,0.00,,SKC,-99.99,VWS V14.01,2013-06-23 06:53:00,
2013-06-23 02:54:00,61.9,60.4,30.09,SE,135,1.6,1.6,95,0.00,,SKC,-99.99,VWS V14.01,2013-06-23 06:54:00,
2013-06-23 02:55:00,61.9,60.4,30.09,ESE,112,2.0,2.0,95,0.00,,SKC,-99.99,VWS V14.01,2013-06-23 06:55:00,
2013-06-23 02:56:00,61.9,60.4,30.09,ESE,112,1.1,2.0,95,0.00,,SKC,-99.99,VWS V14.01,2013-06-23 06:56:00,
2013-06-23 02:57:00,61.7,60.3,30.09,SE,135,1.3,2.0,95,0.00,,SKC,-99.99,VWS V14.01,2013-06-23 06:57:00,
2013-06-23 02:58:00,61.7,60.3,30.09,ESE,112,1.1,2.0,95,0.00,,SKC,-99.99,VWS V14.01,2013-06-23 06:58:00,
2013-06-23 02:59:00,61.7,60.3,30.09,ESE,112,1.1,2.0,95,0.00,,SKC,-99.99,VWS V14.01,2013-06-23 06:59:00,
2013-06-23 03:00:00,61.7,60.3,30.09,ESE,112,1.6,2.0,95,0.00,,SKC,-99.99,VWS V14.01,2013-06-23 07:00:00,
2013-06-23 03:01:00,61.7,60.3,30.09,ESE,112,0.0,2.0,95,0.00,,SKC,-99.99,VWS V14.01,2013-06-23 07:01:00,
2013-06-23 03:02:00,61.7,60.3,30.09,ESE,112,2.5,2.5,95,0.00,,SKC,-99.99,VWS V14.01,2013-06-23 07:02:00,
2013-06-23 03:03:00,61.7,60.3,30.09,SE,135,1.1,2.5,95,0.00,,SKC,-99.99,VWS V14.01,2013-06-23 07:03:00,
2013-06-23 03:04:00,61.7,60.3,30.09,ESE,112,2.0,2.5,95,0.00,,SKC,-99.99,VWS V14.01,2013-06-23 07:04:00,
2013-06-23 03:05:00,61.7,60.3,30.09,East,90,1.6,2.5,95,0.00,,SKC,-99.99,VWS V14.01,2013-06-23 07:05:00,
2013-06-23 03:06:00,61.7,60.3,30.09,ESE,112,1.1,2.5,95,0.00,,SKC,-99.99,VWS V14.01,2013-06-23 07:06:00,
2013-06-23 03:07:00,61.7,60.3,30.09,ESE,112,2.0,2.5,95,0.00,,SKC,-99.99,VWS V14.01,2013-06-23 07:07:00,
2013-06-23 03:08:00,61.7,60.3,30.09,ESE,112,1.6,2.5,95,0.00,,SKC,-99.99,VWS V14.01,2013-06-23 07:08:00,
2013-06-23 03:09:00,61.7,60.3,30.09,ESE,112,1.1,2.5,95,0.00,,SKC,-99.99,VWS V14.01,2013-06-23 07:09:00,
2013-06-23 03:10:00,61.7,60.3,30.09,ESE,112,0.0,2.5,95,0.00,,SKC,-99.99,VWS V14.01,2013-06-23 07:10:00,
2013-06-23 03:11:00,61.5,60.1,30.09,ESE,112,1.1,2.5,95,0.00,,SKC,-99.99,VWS V14.01,2013-06-23 07:11:00,
2013-06-23 03:12:00,61.5,60.1,30.09,ESE,112,2.0,2.5,95,0.00,,SKC,-99.99,VWS V14.01,2013-06-23 07:12:00,
2013-06-23 03:13:00,61.5,60.1,30.09,ESE,112,1.3,2.5,95,0.00,,SKC,-99.99,VWS V14.01,2013-06-23 07:13:00,
2013-06-23 03:14:00,61.5,60.1,30.09,SE,135,2.2,2.5,95,0.00,,SKC,-99.99,VWS V14.01,2013-06-23 07:14:00,
2013-06-23 03:15:00,61.5,60.1,30.09,ESE,112,1.3,2.5,95,0.00,,SKC,-99.99,VWS V14.01,2013-06-23 07:15:00,
2013-06-23 03:16:00,61.5,60.1,30.09,ESE,112,2.5,2.5,95,0.00,,SKC,-99.99,VWS V14.01,2013-06-23 07:16:00,
2013-06-23 03:17:00,61.5,60.1,30.09,SE,135,2.7,2.7,95,0.00,,SKC,-99.99,VWS V14.01,2013-06-23 07:17:00,
2013-06-23 03:18:00,61.5,60.1,30.09,SE,135,2.0,2.7,95,0.00,,SKC,-99.99,VWS V14.01,2013-06-23 07:18:00,
2013-06-23 03:19:00,61.5,60.1,30.09,East,90,0.0,2.7,95,0.00,,SKC,-99.99,VWS V14.01,2013-06-23 07:19:00,
2013-06-23 03:20:00,61.5,60.1,30.09,ESE,112,2.7,2.7,95,0.00,,SKC,-99.99,VWS V14.01,2013-06-23 07:20:00,
2013-06-23 03:21:00,61.3,59.9,30.09,East,90,2.7,2.7,95,0.00,,SKC,-99.99,VWS V14.01,2013-06-23 07:21:00,
2013-06-23 03:22:00,61.3,59.9,30.09,ESE,112,1.3,2.7,95,0.00,,SKC,-99.99,VWS V14.01,2013-06-23 07:22:00,
2013-06-23 03:23:00,61.3,59.9,30.09,ESE,112,0.0,2.7,95,0.00,,SKC,-99.99,VWS V14.01,2013-06-23 07:23:00,
2013-06-23 03:24:00,61.3,59.9,30.09,ESE,112,0.0,2.7,95,0.00,,SKC,-99.99,VWS V14.01,2013-06-23 07:24:00,
2013-06-23 03:25:00,61.3,59.9,30.09,ESE,112,0.0,2.7,95,0.00,,SKC,-99.99,VWS V14.01,2013-06-23 07:25:00,
2013-06-23 03:26:00,61.3,59.9,30.09,ESE,112,0.0,2.7,95,0.00,,SKC,-99.99,VWS V14.01,2013-06-23 07:26:00,
2013-06-23 03:27:00,61.3,59.9,30.09,ESE,112,0.0,2.7,95,0.00,,SKC,-99.99,VWS V14.01,2013-06-23 07:27:00,
2013-06-23 03:28:00,61.3,59.9,30.09,ESE,112,0.0,2.7,95,0.00,,SKC,-99.99,VWS V14.01,2013-06-23 07:28:00,
2013-06-23 03:29:00,61.3,59.9,30.09,ESE,112,0.0,2.7,95,0.00,,SKC,-99.99,VWS V14.01,2013-06-23 07:29:00,
2013-06-23 03:30:00,61.3,59.9,30.09,ESE,112,0.0,2.7,95,0.00,,SKC,-99.99,VWS V14.01,2013-06-23 07:30:00,
2013-06-23 03:31:00,61.3,59.9,30.09,ESE,112,0.0,2.7,95,0.00,,SKC,-99.99,VWS V14.01,2013-06-23 07:31:00,
2013-06-23 03:32:00,61.3,59.9,30.09,ESE,112,0.0,2.7,95,0.00,,SKC,-99.99,VWS V14.01,2013-06-23 07:32:00,
2013-06-23 03:33:00,61.3,59.9,30.09,ESE,112,0.0,2.7,95,0.00,,SKC,-99.99,VWS V14.01,2013-06-23 07:33:00,
2013-06-23 03:34:00,61.3,59.9,30.09,ESE,112,0.0,2.7,95,0.00,,SKC,-99.99,VWS V14.01,2013-06-23 07:34:00,
2013-06-23 03:35:00,61.3,59.9,30.09,ESE,112,0.0,2.7,95,0.00,,SKC,-99.99,VWS V14.01,2013-06-23 07:35:00,
2013-06-23 03:36:00,61.3,59.9,30.09,ESE,112,0.0,2.7,95,0.00,,SKC,-99.99,VWS V14.01,2013-06-23 07:36:00,
2013-06-23 03:37:00,61.3,59.9,30.09,ESE,112,0.0,2.7,95,0.00,,SKC,-99.99,VWS V14.01,2013-06-23 07:37:00,
2013-06-23 03:38:00,61.3,59.9,30.09,ESE,112,0.0,2.7,95,0.00,,SKC,-99.99,VWS V14.01,2013-06-23 07:38:00,
2013-06-23 03:39:00,61.3,59.9,30.09,ESE,112,0.0,2.7,95,0.00,,SKC,-99.99,VWS V14.01,2013-06-23 07:39:00,
2013-06-23 03:40:00,61.3,59.9,30.09,ESE,112,0.0,2.7,95,0.00,,SKC,-99.99,VWS V14.01,2013-06-23 07:40:00,
2013-06-23 03:41:00,61.3,59.9,30.09,ESE,112,0.0,1.3,95,0.00,,SKC,-99.99,VWS V14.01,2013-06-23 07:41:00,
2013-06-23 03:42:00,61.3,59.9,30.09,ESE,112,0.0,0.0,95,0.00,,SKC,-99.99,VWS V14.01,2013-06-23 07:42:00,
2013-06-23 03:43:00,61.3,59.9,30.09,ESE,112,0.0,0.0,95,0.00,,SKC,-99.99,VWS V14.01,2013-06-23 07:43:00,
2013-06-23 03:44:00,61.3,59.9,30.09,ESE,112,0.0,0.0,95,0.00,,SKC,-99.99,VWS V14.01,2013-06-23 07:44:00,
2013-06-23 03:45:00,61.3,59.9,30.09,ESE,112,0.0,0.0,95,0.00,,SKC,-99.99,VWS V14.01,2013-06-23 07:45:00,
2013-06-23 03:46:00,61.3,59.9,30.09,ESE,112,0.0,0.0,95,0.00,,SKC,-99.99,VWS V14.01,2013-06-23 07:46:00,
2013-06-23 03:47:00,61.5,60.1,30.09,ESE,112,0.0,0.0,95,0.00,,SKC,-99.99,VWS V14.01,2013-06-23 07:47:00,
2013-06-23 03:48:00,61.5,60.1,30.09,ESE,112,0.0,0.0,95,0.00,,SKC,-99.99,VWS V14.01,2013-06-23 07:48:00,
2013-06-23 03:49:00,61.5,60.1,30.09,ESE,112,0.0,0.0,95,0.00,,SKC,-99.99,VWS V14.01,2013-06-23 07:49:00,
2013-06-23 03:50:00,61.5,60.1,30.09,SE,135,0.0,0.0,95,0.00,,SKC,-99.99,VWS V14.01,2013-06-23 07:50:00,
2013-06-23 03:51:00,61.5,60.1,30.09,South,180,0.0,0.0,95,0.00,,SKC,-99.99,VWS V14.01,2013-06-23 07:51:00,
2013-06-23 03:52:00,61.5,60.4,30.09,South,180,0.0,0.0,96,0.00,,SKC,-99.99,VWS V14.01,2013-06-23 07:52:00,
2013-06-23 03:53:00,61.5,60.4,30.09,SSE,158,0.0,0.0,96,0.00,,SKC,-99.99,VWS V14.01,2013-06-23 07:53:00,
2013-06-23 03:54:00,61.5,60.4,30.09,South,180,0.0,0.0,96,0.00,,SKC,-99.99,VWS V14.01,2013-06-23 07:54:00,
2013-06-23 03:55:00,61.5,60.4,30.09,WSW,248,0.0,0.0,96,0.00,,SKC,-99.99,VWS V14.01,2013-06-23 07:55:00,
2013-06-23 03:56:00,61.5,60.4,30.09,NW,315,0.0,0.0,96,0.00,,SKC,-99.99,VWS V14.01,2013-06-23 07:56:00,
2013-06-23 03:57:00,61.5,60.4,30.09,NW,315,0.0,0.0,96,0.00,,SKC,-99.99,VWS V14.01,2013-06-23 07:57:00,
2013-06-23 03:58:00,61.5,60.4,30.09,WNW,292,0.0,0.0,96,0.00,,SKC,-99.99,VWS V14.01,2013-06-23 07:58:00,
2013-06-23 03:59:00,61.5,60.4,30.09,South,180,0.0,0.0,96,0.00,,SKC,-99.99,VWS V14.01,2013-06-23 07:59:00,
2013-06-23 04:00:00,61.5,60.4,30.09,South,180,0.0,0.0,96,0.00,,SKC,-99.99,VWS V14.01,2013-06-23 08:00:00,
2013-06-23 04:01:00,61.5,60.4,30.09,South,180,0.0,0.0,96,0.00,,SKC,-99.99,VWS V14.01,2013-06-23 08:01:00,
2013-06-23 04:02:00,61.5,60.4,30.09,South,180,0.0,0.0,96,0.00,,SKC,-99.99,VWS V14.01,2013-06-23 08:02:00,
2013-06-23 04:03:00,61.5,60.4,30.09,South,180,1.3,1.3,96,0.00,,SKC,-99.99,VWS V14.01,2013-06-23 08:03:00,
2013-06-23 04:04:00,61.5,60.4,30.09,South,180,0.0,1.3,96,0.00,,SKC,-99.99,VWS V14.01,2013-06-23 08:04:00,
2013-06-23 04:05:00,61.7,60.5,30.09,SSE,158,0.0,1.3,96,0.00,,SKC,-99.99,VWS V14.01,2013-06-23 08:05:00,
2013-06-23 04:06:00,61.7,60.5,30.09,SSE,158,0.0,1.3,96,0.00,,SKC,-99.99,VWS V14.01,2013-06-23 08:06:00,
2013-06-23 04:07:00,61.7,60.5,30.09,SSE,158,0.0,1.3,96,0.00,,SKC,-99.99,VWS V14.01,2013-06-23 08:07:00,
2013-06-23 04:08:00,61.7,60.5,30.09,SSE,158,0.0,1.3,96,0.00,,SKC,-99.99,VWS V14.01,2013-06-23 08:08:00,
2013-06-23 04:09:00,61.7,60.5,30.09,SSE,158,0.0,1.3,96,0.00,,SKC,-99.99,VWS V14.01,2013-06-23 08:09:00,
2013-06-23 04:10:00,61.7,60.5,30.09,SSE,158,0.0,1.3,96,0.00,,SKC,-99.99,VWS V14.01,2013-06-23 08:10:00,
2013-06-23 04:11:00,61.7,60.5,30.09,ENE,68,0.0,1.3,96,0.00,,SKC,-99.99,VWS V14.01,2013-06-23 08:11:00,
2013-06-23 04:12:00,61.7,60.5,30.09,SE,135,0.0,1.3,96,0.00,,SKC,-99.99,VWS V14.01,2013-06-23 08:12:00,
2013-06-23 04:13:00,61.7,60.5,30.09,SE,135,0.0,1.3,96,0.00,,SKC,-99.99,VWS V14.01,2013-06-23 08:13:00,
2013-06-23 04:14:00,61.7,60.5,30.09,SE,135,0.0,1.3,96,0.00,,SKC,-99.99,VWS V14.01,2013-06-23 08:14:00,
2013-06-23 04:15:00,61.7,60.5,30.09,SE,135,0.0,1.3,96,0.00,,SKC,-99.99,VWS V14.01,2013-06-23 08:15:00,
2013-06-23 04:16:00,61.7,60.5,30.09,SE,135,0.0,1.3,96,0.00,,SKC,-99.99,VWS V14.01,2013-06-23 08:16:00,
2013-06-23 04:17:00,61.7,60.5,30.09,SE,135,0.0,1.3,96,0.00,,SKC,-99.99,VWS V14.01,2013-06-23 08:17:00,
2013-06-23 04:18:00,61.7,60.5,30.09,SE,135,0.0,1.3,96,0.00,,SKC,-99.99,VWS V14.01,2013-06-23 08:18:00,
2013-06-23 04:19:00,61.7,60.5,30.09,SE,135,0.0,1.3,96,0.00,,SKC,-99.99,VWS V14.01,2013-06-23 08:19:00,
2013-06-23 04:20:00,61.7,60.5,30.09,SE,135,0.0,1.3,96,0.00,,SKC,-99.99,VWS V14.01,2013-06-23 08:20:00,
2013-06-23 04:21:00,61.7,60.5,30.09,SE,135,0.0,1.3,96,0.00,,SKC,-99.99,VWS V14.01,2013-06-23 08:21:00,
2013-06-23 04:22:00,61.7,60.5,30.09,SE,135,0.0,1.3,96,0.00,,SKC,-99.99,VWS V14.01,2013-06-23 08:22:00,
2013-06-23 04:23:00,61.7,60.5,30.09,SE,135,0.0,0.0,96,0.00,,SKC,-99.99,VWS V14.01,2013-06-23 08:23:00,
2013-06-23 04:24:00,61.7,60.5,30.09,SE,135,0.0,0.0,96,0.00,,SKC,-99.99,VWS V14.01,2013-06-23 08:24:00,
2013-06-23 04:25:00,61.7,60.5,30.09,SE,135,0.0,0.0,96,0.00,,SKC,-99.99,VWS V14.01,2013-06-23 08:25:00,
2013-06-23 04:26:00,61.7,60.5,30.09,SSE,158,0.0,0.0,96,0.00,,SKC,-99.99,VWS V14.01,2013-06-23 08:26:00,
2013-06-23 04:27:00,61.7,60.5,30.09,SSE,158,0.0,0.0,96,0.00,,SKC,-99.99,VWS V14.01,2013-06-23 08:27:00,
2013-06-23 04:28:00,61.7,60.5,30.09,SSE,158,0.0,0.0,96,0.00,,SKC,-99.99,VWS V14.01,2013-06-23 08:28:00,
2013-06-23 04:29:00,61.5,60.4,30.09,SW,225,0.9,0.9,96,0.00,,SKC,-99.99,VWS V14.01,2013-06-23 08:29:00,
2013-06-23 04:30:00,61.5,60.4,30.09,SW,225,0.0,0.9,96,0.00,,SKC,-99.99,VWS V14.01,2013-06-23 08:30:00,
2013-06-23 04:31:00,61.5,60.4,30.09,SW,225,0.0,0.9,96,0.00,,SKC,-99.99,VWS V14.01,2013-06-23 08:31:00,
2013-06-23 04:32:00,61.5,60.4,30.09,SW,225,0.0,0.9,96,0.00,,SKC,-99.99,VWS V14.01,2013-06-23 08:32:00,
2013-06-23 04:33:00,61.5,60.4,30.09,SSE,158,0.0,0.9,96,0.00,,SKC,-99.99,VWS V14.01,2013-06-23 08:33:00,
2013-06-23 04:34:00,61.5,60.4,30.09,SSE,158,0.0,0.9,96,0.00,,SKC,-99.99,VWS V14.01,2013-06-23 08:34:00,
2013-06-23 04:35:00,61.5,60.4,30.09,SSE,158,0.0,0.9,96,0.00,,SKC,-99.99,VWS V14.01,2013-06-23 08:35:00,
2013-06-23 04:36:00,61.5,60.4,30.09,SSE,158,0.0,0.9,96,0.00,,SKC,-99.99,VWS V14.01,2013-06-23 08:36:00,
2013-06-23 04:37:00,61.5,60.4,30.09,South,180,0.0,0.9,96,0.00,,SKC,-99.99,VWS V14.01,2013-06-23 08:37:00,
2013-06-23 04:38:00,61.5,60.4,30.09,South,180,0.0,0.9,96,0.00,,SKC,-99.99,VWS V14.01,2013-06-23 08:38:00,
2013-06-23 04:39:00,61.5,60.4,30.09,South,180,0.0,0.9,96,0.00,,SKC,-99.99,VWS V14.01,2013-06-23 08:39:00,
2013-06-23 04:40:00,61.5,60.4,30.09,South,180,0.0,0.9,96,0.00,,SKC,-99.99,VWS V14.01,2013-06-23 08:40:00,
2013-06-23 04:41:00,61.5,60.4,30.09,South,180,0.0,0.9,96,0.00,,SKC,-99.99,VWS V14.01,2013-06-23 08:41:00,
2013-06-23 04:42:00,61.5,60.4,30.09,South,180,0.0,0.9,96,0.00,,SKC,-99.99,VWS V14.01,2013-06-23 08:42:00,
2013-06-23 04:43:00,61.5,60.4,30.09,South,180,0.0,0.9,96,0.00,,SKC,-99.99,VWS V14.01,2013-06-23 08:43:00,
2013-06-23 04:44:00,61.5,60.4,30.09,South,180,0.0,0.9,96,0.00,,SKC,-99.99,VWS V14.01,2013-06-23 08:44:00,
2013-06-23 04:45:00,61.5,60.4,30.09,South,180,0.0,0.9,96,0.00,,SKC,-99.99,VWS V14.01,2013-06-23 08:45:00,
2013-06-23 04:46:00,61.5,60.4,30.09,SW,225,0.0,0.9,96,0.00,,SKC,-99.99,VWS V14.01,2013-06-23 08:46:00,
2013-06-23 04:47:00,61.5,60.4,30.09,SW,225,0.0,0.9,96,0.00,,SKC,-99.99,VWS V14.01,2013-06-23 08:47:00,
2013-06-23 04:48:00,61.5,60.4,30.09,SW,225,0.0,0.9,96,0.00,,SKC,-99.99,VWS V14.01,2013-06-23 08:48:00,
2013-06-23 04:49:00,61.5,60.4,30.09,SW,225,0.0,0.0,96,0.00,,SKC,-99.99,VWS V14.01,2013-06-23 08:49:00,
2013-06-23 04:50:00,61.5,60.4,30.09,SW,225,0.0,0.0,96,0.00,,SKC,-99.99,VWS V14.01,2013-06-23 08:50:00,
2013-06-23 04:51:00,61.5,60.4,30.09,WSW,248,0.0,0.0,96,0.00,,SKC,-99.99,VWS V14.01,2013-06-23 08:51:00,
2013-06-23 04:52:00,61.5,60.4,30.09,SW,225,1.6,1.6,96,0.00,,SKC,-99.99,VWS V14.01,2013-06-23 08:52:00,
2013-06-23 04:53:00,61.5,60.4,30.09,WSW,248,0.0,1.6,96,0.00,,SKC,-99.99,VWS V14.01,2013-06-23 08:53:00,
2013-06-23 04:54:00,61.7,60.5,30.09,SW,225,1.3,1.6,96,0.00,,SKC,-99.99,VWS V14.01,2013-06-23 08:54:00,
2013-06-23 04:55:00,61.7,60.5,30.09,West,270,0.0,1.6,96,0.00,,SKC,-99.99,VWS V14.01,2013-06-23 08:55:00,
2013-06-23 04:56:00,61.7,60.5,30.09,WSW,248,2.5,2.5,96,0.00,,SKC,-99.99,VWS V14.01,2013-06-23 08:56:00,
2013-06-23 04:57:00,61.7,60.5,30.09,SW,225,0.9,2.5,96,0.00,,SKC,-99.99,VWS V14.01,2013-06-23 08:57:00,
2013-06-23 04:58:00,61.7,60.5,30.09,SW,225,2.0,2.5,96,0.00,,SKC,-99.99,VWS V14.01,2013-06-23 08:58:00,
2013-06-23 04:59:00,61.7,60.5,30.09,SW,225,2.5,2.5,96,0.00,,SKC,-99.99,VWS V14.01,2013-06-23 08:59:00,
2013-06-23 05:00:00,61.7,60.5,30.09,SW,225,0.9,2.5,96,0.00,,SKC,-99.99,VWS V14.01,2013-06-23 09:00:00,
2013-06-23 05:01:00,61.7,60.5,30.09,SW,225,2.7,2.7,96,0.00,,SKC,-99.99,VWS V14.01,2013-06-23 09:01:00,
2013-06-23 05:02:00,61.7,60.5,30.09,SW,225,2.5,2.7,96,0.00,,SKC,-99.99,VWS V14.01,2013-06-23 09:02:00,
2013-06-23 05:03:00,61.7,60.5,30.09,SW,225,3.1,3.1,96,0.00,,SKC,-99.99,VWS V14.01,2013-06-23 09:03:00,
2013-06-23 05:04:00,61.9,60.7,30.09,WSW,248,2.5,3.1,96,0.00,,SKC,-99.99,VWS V14.01,2013-06-23 09:04:00,
2013-06-23 05:05:00,61.9,60.7,30.09,WSW,248,3.6,3.6,96,0.00,,SKC,-99.99,VWS V14.01,2013-06-23 09:05:00,
2013-06-23 05:06:00,61.9,60.7,30.09,West,270,2.9,3.6,96,0.00,,SKC,-99.99,VWS V14.01,2013-06-23 09:06:00,
2013-06-23 05:07:00,61.9,60.7,30.09,SW,225,2.5,3.6,96,0.00,,SKC,-99.99,VWS V14.01,2013-06-23 09:07:00,
2013-06-23 05:08:00,61.9,60.7,30.09,SW,225,2.7,3.6,96,0.00,,SKC,-99.99,VWS V14.01,2013-06-23 09:08:00,
2013-06-23 05:09:00,61.9,60.7,30.09,SW,225,3.4,3.6,96,0.00,,SKC,-99.99,VWS V14.01,2013-06-23 09:09:00,
2013-06-23 05:10:00,61.9,60.7,30.09,NW,315,2.7,3.6,96,0.00,,SKC,-99.99,VWS V14.01,2013-06-23 09:10:00,
2013-06-23 05:11:00,61.9,60.7,30.09,WSW,248,3.4,3.6,96,0.00,,SKC,-99.99,VWS V14.01,2013-06-23 09:11:00,
2013-06-23 05:12:00,62.1,60.9,30.09,WSW,248,2.9,3.6,96,0.00,,SKC,-99.99,VWS V14.01,2013-06-23 09:12:00,
2013-06-23 05:13:00,62.1,60.9,30.09,West,270,2.7,3.6,96,0.00,,SKC,-99.99,VWS V14.01,2013-06-23 09:13:00,
2013-06-23 05:14:00,62.1,60.9,30.09,WSW,248,3.8,3.8,96,0.00,,SKC,-99.99,VWS V14.01,2013-06-23 09:14:00,
2013-06-23 05:15:00,62.2,61.1,30.09,SW,225,3.1,3.8,96,0.00,,SKC,-99.99,VWS V14.01,2013-06-23 09:15:00,
2013-06-23 05:16:00,62.2,61.1,30.09,SW,225,2.9,3.8,96,0.00,,SKC,-99.99,VWS V14.01,2013-06-23 09:16:00,
2013-06-23 05:17:00,62.2,61.1,30.09,SW,225,2.2,3.8,96,0.00,,SKC,-99.99,VWS V14.01,2013-06-23 09:17:00,
2013-06-23 05:18:00,62.2,61.1,30.09,WSW,248,3.1,3.8,96,0.00,,SKC,-99.99,VWS V14.01,2013-06-23 09:18:00,
2013-06-23 05:19:00,62.4,61.3,30.09,SW,225,2.7,3.8,96,0.00,,SKC,-99.99,VWS V14.01,2013-06-23 09:19:00,
2013-06-23 05:20:00,62.4,61.3,30.09,WSW,248,3.1,3.8,96,0.00,,SKC,-99.99,VWS V14.01,2013-06-23 09:20:00,
2013-06-23 05:21:00,62.4,61.3,30.09,WSW,248,2.7,3.8,96,0.00,,SKC,-99.99,VWS V14.01,2013-06-23 09:21:00,
2013-06-23 05:22:00,62.6,61.5,30.09,WSW,248,3.1,3.8,96,0.00,,SKC,-99.99,VWS V14.01,2013-06-23 09:22:00,
2013-06-23 05:23:00,62.6,61.5,30.09,WSW,248,2.9,3.8,96,0.00,,SKC,-99.99,VWS V14.01,2013-06-23 09:23:00,
2013-06-23 05:24:00,62.6,61.5,30.09,WSW,248,2.0,3.8,96,0.00,,SKC,-99.99,VWS V14.01,2013-06-23 09:24:00,
2013-06-23 05:25:00,62.6,61.5,30.09,SW,225,3.4,3.8,96,0.00,,SKC,-99.99,VWS V14.01,2013-06-23 09:25:00,
2013-06-23 05:26:00,62.6,61.2,30.09,SW,225,3.4,3.8,95,0.00,,SKC,-99.99,VWS V14.01,2013-06-23 09:26:00,
2013-06-23 05:27:00,62.6,61.2,30.09,WSW,248,2.7,3.8,95,0.00,,SKC,-99.99,VWS V14.01,2013-06-23 09:27:00,
2013-06-23 05:28:00,62.6,61.2,30.09,SW,225,3.6,3.8,95,0.00,,SKC,-99.99,VWS V14.01,2013-06-23 09:28:00,
2013-06-23 05:29:00,62.8,61.3,30.09,WSW,248,2.5,3.8,95,0.00,,SKC,-99.99,VWS V14.01,2013-06-23 09:29:00,
2013-06-23 05:30:00,62.8,61.3,30.09,WSW,248,2.9,3.8,95,0.00,,SKC,-99.99,VWS V14.01,2013-06-23 09:30:00,
2013-06-23 05:31:00,62.8,61.3,30.09,SW,225,2.7,3.8,95,0.00,,SKC,-99.99,VWS V14.01,2013-06-23 09:31:00,
2013-06-23 05:32:00,62.8,61.3,30.09,West,270,2.9,3.8,95,0.00,,SKC,-99.99,VWS V14.01,2013-06-23 09:32:00,
2013-06-23 05:33:00,62.8,61.3,30.09,West,270,3.4,3.8,95,0.00,,SKC,-99.99,VWS V14.01,2013-06-23 09:33:00,
2013-06-23 05:34:00,63.0,61.5,30.09,WSW,248,2.7,3.6,95,0.00,,SKC,-99.99,VWS V14.01,2013-06-23 09:34:00,
2013-06-23 05:35:00,63.0,61.5,30.09,SW,225,3.4,3.6,95,0.00,,SKC,-99.99,VWS V14.01,2013-06-23 09:35:00,
2013-06-23 05:36:00,63.0,61.5,30.09,WSW,248,2.9,3.6,95,0.00,,SKC,-99.99,VWS V14.01,2013-06-23 09:36:00,
2013-06-23 05:37:00,63.0,61.5,30.09,WSW,248,3.4,3.6,95,0.00,,SKC,-99.99,VWS V14.01,2013-06-23 09:37:00,
2013-06-23 05:38:00,63.0,61.5,30.09,West,270,2.5,3.6,95,0.00,,SKC,-99.99,VWS V14.01,2013-06-23 09:38:00,
2013-06-23 05:39:00,63.0,61.5,30.09,WSW,248,3.1,3.6,95,0.00,,SKC,-99.99,VWS V14.01,2013-06-23 09:39:00,
2013-06-23 05:40:00,63.1,61.7,30.09,SW,225,2.9,3.6,95,0.00,,SKC,-99.99,VWS V14.01,2013-06-23 09:40:00,
2013-06-23 05:41:00,63.1,61.7,30.09,WSW,248,2.7,3.6,95,0.00,,SKC,-99.99,VWS V14.01,2013-06-23 09:41:00,
2013-06-23 05:42:00,63.1,61.7,30.06,SW,225,2.7,3.6,95,0.00,,SKC,-99.99,VWS V14.01,2013-06-23 09:42:00,
2013-06-23 05:43:00,63.1,61.7,30.06,WSW,248,3.4,3.6,95,0.00,,SKC,-99.99,VWS V14.01,2013-06-23 09:43:00,
2013-06-23 05:44:00,63.1,61.7,30.06,WSW,248,2.0,3.6,95,0.00,,SKC,-99.99,VWS V14.01,2013-06-23 09:44:00,
2013-06-23 05:45:00,63.3,61.9,30.06,SW,225,2.5,3.6,95,0.00,,SKC,-99.99,VWS V14.01,2013-06-23 09:45:00,
2013-06-23 05:46:00,63.3,61.9,30.06,WSW,248,3.1,3.6,95,0.00,,SKC,-99.99,VWS V14.01,2013-06-23 09:46:00,
2013-06-23 05:47:00,63.3,61.9,30.06,WSW,248,2.9,3.6,95,0.00,,SKC,-99.99,VWS V14.01,2013-06-23 09:47:00,
2013-06-23 05:48:00,63.3,61.9,30.06,SW,225,2.2,3.4,95,0.00,,SKC,-99.99,VWS V14.01,2013-06-23 09:48:00,
2013-06-23 05:49:00,63.3,61.9,30.06,SW,225,2.5,3.4,95,0.00,,SKC,-99.99,VWS V14.01,2013-06-23 09:49:00,
2013-06-23 05:50:00,63.3,61.9,30.06,SW,225,2.7,3.4,95,0.00,,SKC,-99.99,VWS V14.01,2013-06-23 09:50:00,
2013-06-23 05:51:00,63.3,61.9,30.06,WSW,248,2.2,3.4,95,0.00,,SKC,-99.99,VWS V14.01,2013-06-23 09:51:00,
2013-06-23 05:52:00,63.3,61.9,30.06,SW,225,2.0,3.4,95,0.00,,SKC,-99.99,VWS V14.01,2013-06-23 09:52:00,
2013-06-23 05:53:00,63.3,61.9,30.06,WSW,248,1.6,3.4,95,0.00,,SKC,-99.99,VWS V14.01,2013-06-23 09:53:00,
2013-06-23 05:54:00,63.3,61.6,30.06,SW,225,2.2,3.4,94,0.00,,SKC,-99.99,VWS V14.01,2013-06-23 09:54:00,
2013-06-23 05:55:00,63.5,61.8,30.06,SW,225,2.0,3.4,94,0.00,,SKC,-99.99,VWS V14.01,2013-06-23 09:55:00,
2013-06-23 05:56:00,63.5,61.8,30.06,SW,225,1.3,3.4,94,0.00,,SKC,-99.99,VWS V14.01,2013-06-23 09:56:00,
2013-06-23 05:57:00,63.5,61.8,30.09,WSW,248,2.2,3.4,94,0.00,,SKC,-99.99,VWS V14.01,2013-06-23 09:57:00,
2013-06-23 05:58:00,63.5,61.8,30.09,WSW,248,0.9,3.4,94,0.00,,SKC,-99.99,VWS V14.01,2013-06-23 09:58:00,
2013-06-23 05:59:00,63.5,61.8,30.09,WSW,248,2.5,3.4,94,0.00,,SKC,-99.99,VWS V14.01,2013-06-23 09:59:00,
2013-06-23 06:00:00,63.5,61.8,30.09,WSW,248,1.1,3.4,94,0.00,,SKC,-99.99,VWS V14.01,2013-06-23 10:00:00,
2013-06-23 06:01:00,63.7,61.9,30.09,WSW,248,1.3,3.4,94,0.00,,SKC,-99.99,VWS V14.01,2013-06-23 10:01:00,
2013-06-23 06:02:00,63.7,61.9,30.09,West,270,0.0,3.4,94,0.00,,SKC,-99.99,VWS V14.01,2013-06-23 10:02:00,
2013-06-23 06:03:00,63.7,61.9,30.09,WSW,248,1.1,3.1,94,0.00,,SKC,-99.99,VWS V14.01,2013-06-23 10:03:00,
2013-06-23 06:04:00,63.7,61.9,30.09,SW,225,0.0,3.1,94,0.00,,SKC,-99.99,VWS V14.01,2013-06-23 10:04:00,
2013-06-23 06:05:00,63.7,61.9,30.09,SW,225,1.1,3.1,94,0.00,,SKC,-99.99,VWS V14.01,2013-06-23 10:05:00,
2013-06-23 06:06:00,63.9,62.1,30.09,SW,225,0.9,2.9,94,0.00,,SKC,-99.99,VWS V14.01,2013-06-23 10:06:00,
2013-06-23 06:07:00,63.9,62.1,30.09,SW,225,0.0,2.7,94,0.00,,SKC,-99.99,VWS V14.01,2013-06-23 10:07:00,
2013-06-23 06:08:00,63.9,62.1,30.09,WSW,248,0.0,2.7,94,0.00,,SKC,-99.99,VWS V14.01,2013-06-23 10:08:00,
2013-06-23 06:09:00,63.9,62.1,30.09,SW,225,1.3,2.7,94,0.00,,SKC,-99.99,VWS V14.01,2013-06-23 10:09:00,
2013-06-23 06:10:00,63.9,62.1,30.09,SW,225,1.6,2.5,94,0.00,,SKC,-99.99,VWS V14.01,2013-06-23 10:10:00,
2013-06-23 06:11:00,63.9,62.1,30.09,West,270,0.0,2.5,94,0.00,,SKC,-99.99,VWS V14.01,2013-06-23 10:11:00,
2013-06-23 06:12:00,63.9,62.1,30.06,West,270,1.1,2.5,94,0.00,,SKC,-99.99,VWS V14.01,2013-06-23 10:12:00,
2013-06-23 06:13:00,63.9,62.1,30.06,SW,225,0.0,2.5,94,0.00,,SKC,-99.99,VWS V14.01,2013-06-23 10:13:00,
2013-06-23 06:14:00,63.9,62.1,30.06,SW,225,1.6,2.5,94,0.00,,SKC,-99.99,VWS V14.01,2013-06-23 10:14:00,
2013-06-23 06:15:00,63.9,62.1,30.06,West,270,1.3,2.5,94,0.00,,SKC,-99.99,VWS V14.01,2013-06-23 10:15:00,
2013-06-23 06:16:00,63.9,62.1,30.06,SW,225,1.6,2.5,94,0.00,,SKC,-99.99,VWS V14.01,2013-06-23 10:16:00,
2013-06-23 06:17:00,64.0,62.3,30.06,SW,225,0.0,2.5,94,0.00,,SKC,-99.99,VWS V14.01,2013-06-23 10:17:00,
2013-06-23 06:18:00,64.0,62.3,30.06,SW,225,0.0,2.5,94,0.00,,SKC,-99.99,VWS V14.01,2013-06-23 10:18:00,
2013-06-23 06:19:00,64.0,62.3,30.06,SSW,202,1.1,1.6,94,0.00,,SKC,-99.99,VWS V14.01,2013-06-23 10:19:00,
2013-06-23 06:20:00,64.2,62.5,30.06,SW,225,0.0,1.6,94,0.00,,SKC,-99.99,VWS V14.01,2013-06-23 10:20:00,
2013-06-23 06:21:00,64.2,62.5,30.06,SW,225,2.2,2.2,94,0.00,,SKC,-99.99,VWS V14.01,2013-06-23 10:21:00,
2013-06-23 06:22:00,64.2,62.5,30.06,SW,225,1.3,2.2,94,0.00,,SKC,-99.99,VWS V14.01,2013-06-23 10:22:00,
2013-06-23 06:23:00,64.2,62.5,30.06,SSW,202,1.3,2.2,94,0.00,,SKC,-99.99,VWS V14.01,2013-06-23 10:23:00,
2013-06-23 06:24:00,64.2,62.5,30.06,SW,225,0.0,2.2,94,0.00,,SKC,-99.99,VWS V14.01,2013-06-23 10:24:00,
2013-06-23 06:25:00,64.2,62.5,30.06,SW,225,1.3,2.2,94,0.00,,SKC,-99.99,VWS V14.01,2013-06-23 10:25:00,
2013-06-23 06:26:00,64.2,62.5,30.06,SW,225,2.2,2.2,94,0.00,,SKC,-99.99,VWS V14.01,2013-06-23 10:26:00,
2013-06-23 06:27:00,64.4,62.3,30.09,SW,225,0.0,2.2,93,0.00,,SKC,-99.99,VWS V14.01,2013-06-23 10:27:00,
2013-06-23 06:28:00,64.4,62.3,30.09,SW,225,1.1,2.2,93,0.00,,SKC,-99.99,VWS V14.01,2013-06-23 10:28:00,
2013-06-23 06:29:00,64.4,62.3,30.09,SW,225,1.1,2.2,93,0.00,,SKC,-99.99,VWS V14.01,2013-06-23 10:29:00,
2013-06-23 06:30:00,64.4,62.3,30.09,SW,225,1.3,2.2,93,0.00,,SKC,-99.99,VWS V14.01,2013-06-23 10:30:00,
2013-06-23 06:31:00,64.4,62.3,30.09,SW,225,0.0,2.2,93,0.00,,SKC,-99.99,VWS V14.01,2013-06-23 10:31:00,
2013-06-23 06:32:00,64.4,62.3,30.09,SW,225,0.9,2.2,93,0.00,,SKC,-99.99,VWS V14.01,2013-06-23 10:32:00,
2013-06-23 06:33:00,64.6,62.5,30.09,SW,225,0.0,2.2,93,0.00,,SKC,-99.99,VWS V14.01,2013-06-23 10:33:00,
2013-06-23 06:34:00,64.6,62.5,30.09,SW,225,0.0,2.2,93,0.00,,SKC,-99.99,VWS V14.01,2013-06-23 10:34:00,
2013-06-23 06:35:00,64.6,62.5,30.09,SW,225,0.0,2.2,93,0.00,,SKC,-99.99,VWS V14.01,2013-06-23 10:35:00,
2013-06-23 06:36:00,64.8,62.7,30.09,SW,225,0.0,2.2,93,0.00,,SKC,-99.99,VWS V14.01,2013-06-23 10:36:00,
2013-06-23 06:37:00,64.8,62.7,30.09,SW,225,1.6,2.2,93,0.00,,SKC,-99.99,VWS V14.01,2013-06-23 10:37:00,
2013-06-23 06:38:00,64.8,62.7,30.09,SW,225,0.0,2.2,93,0.00,,SKC,-99.99,VWS V14.01,2013-06-23 10:38:00,
2013-06-23 06:39:00,64.9,62.9,30.09,SW,225,0.9,2.2,93,0.00,,SKC,-99.99,VWS V14.01,2013-06-23 10:39:00,
2013-06-23 06:40:00,64.9,62.9,30.09,SW,225,0.0,2.2,93,0.00,,SKC,-99.99,VWS V14.01,2013-06-23 10:40:00,
2013-06-23 06:41:00,64.9,62.9,30.09,SW,225,0.9,2.2,93,0.00,,SKC,-99.99,VWS V14.01,2013-06-23 10:41:00,
2013-06-23 06:42:00,64.9,62.9,30.06,SSW,202,2.5,2.5,93,0.00,,SKC,-99.99,VWS V14.01,2013-06-23 10:42:00,
2013-06-23 06:43:00,65.1,63.0,30.06,SW,225,0.0,2.5,93,0.00,,SKC,-99.99,VWS V14.01,2013-06-23 10:43:00,
2013-06-23 06:44:00,65.1,63.0,30.06,SW,225,0.0,2.5,93,0.00,,SKC,-99.99,VWS V14.01,2013-06-23 10:44:00,
2013-06-23 06:45:00,65.1,63.0,30.06,SSW,202,0.0,2.5,93,0.00,,SKC,-99.99,VWS V14.01,2013-06-23 10:45:00,
2013-06-23 06:46:00,65.3,63.2,30.06,SW,225,0.0,2.5,93,0.00,,SKC,-99.99,VWS V14.01,2013-06-23 10:46:00,
2013-06-23 06:47:00,65.3,63.2,30.06,West,270,0.9,2.5,93,0.00,,SKC,-99.99,VWS V14.01,2013-06-23 10:47:00,
2013-06-23 06:48:00,65.3,63.2,30.06,SW,225,1.3,2.5,93,0.00,,SKC,-99.99,VWS V14.01,2013-06-23 10:48:00,
2013-06-23 06:49:00,65.5,63.4,30.06,WSW,248,0.0,2.5,93,0.00,,SKC,-99.99,VWS V14.01,2013-06-23 10:49:00,
2013-06-23 06:50:00,65.5,63.4,30.06,WSW,248,2.7,2.7,93,0.00,,SKC,-99.99,VWS V14.01,2013-06-23 10:50:00,
2013-06-23 06:51:00,65.5,63.4,30.06,SW,225,2.0,2.7,93,0.00,,SKC,-99.99,VWS V14.01,2013-06-23 10:51:00,
2013-06-23 06:52:00,65.5,63.4,30.06,SW,225,1.6,2.7,93,0.00,,SKC,-99.99,VWS V14.01,2013-06-23 10:52:00,
2013-06-23 06:53:00,65.7,63.6,30.06,SW,225,0.0,2.7,93,0.00,,SKC,-99.99,VWS V14.01,2013-06-23 10:53:00,
2013-06-23 06:54:00,65.7,63.6,30.06,SW,225,0.0,2.7,93,0.00,,SKC,-99.99,VWS V14.01,2013-06-23 10:54:00,
2013-06-23 06:55:00,65.7,63.6,30.06,SW,225,0.0,2.7,93,0.00,,SKC,-99.99,VWS V14.01,2013-06-23 10:55:00,
2013-06-23 06:56:00,65.7,63.6,30.06,SW,225,1.1,2.7,93,0.00,,SKC,-99.99,VWS V14.01,2013-06-23 10:56:00,
2013-06-23 06:57:00,65.7,63.6,30.09,SW,225,0.0,2.7,93,0.00,,SKC,-99.99,VWS V14.01,2013-06-23 10:57:00,
2013-06-23 06:58:00,65.8,63.8,30.09,SW,225,0.0,2.7,93,0.00,,SKC,-99.99,VWS V14.01,2013-06-23 10:58:00,
2013-06-23 06:59:00,65.8,63.8,30.09,SW,225,2.2,2.7,93,0.00,,SKC,-99.99,VWS V14.01,2013-06-23 10:59:00,
2013-06-23 07:00:00,65.8,63.8,30.09,SW,225,0.0,2.7,93,0.00,,SKC,-99.99,VWS V14.01,2013-06-23 11:00:00,
2013-06-23 07:01:00,66.0,63.9,30.09,SW,225,2.0,2.7,93,0.00,,SKC,-99.99,VWS V14.01,2013-06-23 11:01:00,
2013-06-23 07:02:00,66.0,63.9,30.09,SW,225,2.0,2.7,93,0.00,,SKC,-99.99,VWS V14.01,2013-06-23 11:02:00,
2013-06-23 07:03:00,66.0,63.9,30.09,SW,225,1.3,2.7,93,0.00,,SKC,-99.99,VWS V14.01,2013-06-23 11:03:00,
2013-06-23 07:04:00,66.0,63.9,30.09,SW,225,0.0,2.7,93,0.00,,SKC,-99.99,VWS V14.01,2013-06-23 11:04:00,
2013-06-23 07:05:00,66.2,63.8,30.09,SW,225,1.6,2.7,92,0.00,,SKC,-99.99,VWS V14.01,2013-06-23 11:05:00,
2013-06-23 07:06:00,66.2,63.8,30.09,SW,225,1.3,2.7,92,0.00,,SKC,-99.99,VWS V14.01,2013-06-23 11:06:00,
2013-06-23 07:07:00,66.2,63.8,30.09,West,270,0.0,2.7,92,0.00,,SKC,-99.99,VWS V14.01,2013-06-23 11:07:00,
2013-06-23 07:08:00,66.4,64.0,30.09,West,270,0.0,2.7,92,0.00,,SKC,-99.99,VWS V14.01,2013-06-23 11:08:00,
2013-06-23 07:09:00,66.4,64.0,30.09,East,90,2.0,2.7,92,0.00,,SKC,-99.99,VWS V14.01,2013-06-23 11:09:00,
2013-06-23 07:10:00,66.4,64.0,30.09,SW,225,2.7,2.7,92,0.00,,SKC,-99.99,VWS V14.01,2013-06-23 11:10:00,
2013-06-23 07:11:00,66.4,64.0,30.09,SW,225,2.5,2.7,92,0.00,,SKC,-99.99,VWS V14.01,2013-06-23 11:11:00,
2013-06-23 07:12:00,66.6,64.2,30.09,WSW,248,1.1,2.7,92,0.00,,SKC,-99.99,VWS V14.01,2013-06-23 11:12:00,
2013-06-23 07:13:00,66.6,64.2,30.09,SW,225,3.4,3.4,92,0.00,,SKC,-99.99,VWS V14.01,2013-06-23 11:13:00,
2013-06-23 07:14:00,66.6,64.2,30.09,SW,225,1.1,3.4,92,0.00,,SKC,-99.99,VWS V14.01,2013-06-23 11:14:00,
2013-06-23 07:15:00,66.7,64.3,30.09,SW,225,1.3,3.4,92,0.00,,SKC,-99.99,VWS V14.01,2013-06-23 11:15:00,
2013-06-23 07:16:00,66.7,64.3,30.09,SW,225,2.0,3.4,92,0.00,,SKC,-99.99,VWS V14.01,2013-06-23 11:16:00,
2013-06-23 07:17:00,66.7,64.3,30.09,SW,225,2.2,3.4,92,0.00,,SKC,-99.99,VWS V14.01,2013-06-23 11:17:00,
2013-06-23 07:18:00,66.7,64.3,30.09,SW,225,3.8,3.8,92,0.00,,SKC,-99.99,VWS V14.01,2013-06-23 11:18:00,
2013-06-23 07:19:00,66.9,64.5,30.09,SW,225,2.5,3.8,92,0.00,,SKC,-99.99,VWS V14.01,2013-06-23 11:19:00,
2013-06-23 07:20:00,66.9,64.5,30.09,SW,225,2.7,3.8,92,0.00,,SKC,-99.99,VWS V14.01,2013-06-23 11:20:00,
2013-06-23 07:21:00,66.9,64.5,30.09,WSW,248,1.6,3.8,92,0.00,,SKC,-99.99,VWS V14.01,2013-06-23 11:21:00,
2013-06-23 07:22:00,67.1,64.7,30.09,SW,225,2.0,3.8,92,0.00,,SKC,-99.99,VWS V14.01,2013-06-23 11:22:00,
2013-06-23 07:23:00,67.1,64.7,30.09,WSW,248,2.2,3.8,92,0.00,,SKC,-99.99,VWS V14.01,2013-06-23 11:23:00,
2013-06-23 07:24:00,67.1,64.7,30.09,SW,225,2.0,3.8,92,0.00,,SKC,-99.99,VWS V14.01,2013-06-23 11:24:00,
2013-06-23 07:25:00,67.1,64.7,30.09,SW,225,2.5,3.8,92,0.00,,SKC,-99.99,VWS V14.01,2013-06-23 11:25:00,
2013-06-23 07:26:00,67.3,64.9,30.09,WSW,248,1.3,3.8,92,0.00,,SKC,-99.99,VWS V14.01,2013-06-23 11:26:00,
2013-06-23 07:27:00,67.3,64.9,30.09,SW,225,0.0,3.8,92,0.00,,SKC,-99.99,VWS V14.01,2013-06-23 11:27:00,
2013-06-23 07:28:00,67.3,64.9,30.09,WSW,248,2.0,3.8,92,0.00,,SKC,-99.99,VWS V14.01,2013-06-23 11:28:00,
2013-06-23 07:29:00,67.5,65.1,30.09,SW,225,1.6,3.8,92,0.00,,SKC,-99.99,VWS V14.01,2013-06-23 11:29:00,
2013-06-23 07:30:00,67.5,65.1,30.09,SW,225,3.1,3.8,92,0.00,,SKC,-99.99,VWS V14.01,2013-06-23 11:30:00,
2013-06-23 07:31:00,67.5,65.1,30.09,SW,225,1.1,3.8,92,0.00,,SKC,-99.99,VWS V14.01,2013-06-23 11:31:00,
2013-06-23 07:32:00,67.5,65.1,30.09,SW,225,1.3,3.8,92,0.00,,SKC,-99.99,VWS V14.01,2013-06-23 11:32:00,
2013-06-23 07:33:00,67.6,65.2,30.09,SW,225,2.0,3.8,92,0.00,,SKC,-99.99,VWS V14.01,2013-06-23 11:33:00,
2013-06-23 07:34:00,67.6,65.2,30.09,SW,225,2.2,3.8,92,0.00,,SKC,-99.99,VWS V14.01,2013-06-23 11:34:00,
2013-06-23 07:35:00,67.6,65.2,30.09,SW,225,0.0,3.8,92,0.00,,SKC,-99.99,VWS V14.01,2013-06-23 11:35:00,
2013-06-23 07:36:00,67.8,65.4,30.09,SW,225,2.5,3.8,92,0.00,,SKC,-99.99,VWS V14.01,2013-06-23 11:36:00,
2013-06-23 07:37:00,67.8,65.4,30.09,WSW,248,2.7,3.8,92,0.00,,SKC,-99.99,VWS V14.01,2013-06-23 11:37:00,
2013-06-23 07:38:00,67.8,65.4,30.09,SW,225,0.9,3.1,92,0.00,,SKC,-99.99,VWS V14.01,2013-06-23 11:38:00,
2013-06-23 07:39:00,68.0,65.3,30.09,SW,225,2.9,3.1,91,0.00,,SKC,-99.99,VWS V14.01,2013-06-23 11:39:00,
2013-06-23 07:40:00,68.0,65.6,30.09,SW,225,1.6,3.1,92,0.00,,SKC,-99.99,VWS V14.01,2013-06-23 11:40:00,
2013-06-23 07:41:00,68.0,65.6,30.09,SW,225,2.2,3.1,92,0.00,,SKC,-99.99,VWS V14.01,2013-06-23 11:41:00,
2013-06-23 07:42:00,68.0,65.6,30.09,SW,225,3.1,3.1,92,0.00,,SKC,-99.99,VWS V14.01,2013-06-23 11:42:00,
2013-06-23 07:43:00,68.2,65.5,30.09,WSW,248,2.9,3.1,91,0.00,,SKC,-99.99,VWS V14.01,2013-06-23 11:43:00,
2013-06-23 07:44:00,68.2,65.5,30.09,WSW,248,1.3,3.1,91,0.00,,SKC,-99.99,VWS V14.01,2013-06-23 11:44:00,
2013-06-23 07:45:00,68.4,65.6,30.09,SW,225,2.5,3.1,91,0.00,,SKC,-99.99,VWS V14.01,2013-06-23 11:45:00,
2013-06-23 07:46:00,68.4,65.6,30.09,West,270,2.0,3.1,91,0.00,,SKC,-99.99,VWS V14.01,2013-06-23 11:46:00,
2013-06-23 07:47:00,68.4,65.6,30.09,SW,225,2.5,3.1,91,0.00,,SKC,-99.99,VWS V14.01,2013-06-23 11:47:00,
2013-06-23 07:48:00,68.5,65.8,30.09,SW,225,2.7,3.1,91,0.00,,SKC,-99.99,VWS V14.01,2013-06-23 11:48:00,
2013-06-23 07:49:00,68.5,65.8,30.09,SW,225,0.0,3.1,91,0.00,,SKC,-99.99,VWS V14.01,2013-06-23 11:49:00,
2013-06-23 07:50:00,68.5,65.8,30.09,WSW,248,0.0,3.1,91,0.00,,SKC,-99.99,VWS V14.01,2013-06-23 11:50:00,
2013-06-23 07:51:00,68.7,66.0,30.09,SW,225,0.0,3.1,91,0.00,,SKC,-99.99,VWS V14.01,2013-06-23 11:51:00,
2013-06-23 07:52:00,68.7,66.0,30.09,West,270,2.5,3.1,91,0.00,,SKC,-99.99,VWS V14.01,2013-06-23 11:52:00,
2013-06-23 07:53:00,68.9,66.2,30.09,SW,225,2.2,3.1,91,0.00,,SKC,-99.99,VWS V14.01,2013-06-23 11:53:00,
2013-06-23 07:54:00,68.9,66.2,30.09,SW,225,0.0,3.1,91,0.00,,SKC,-99.99,VWS V14.01,2013-06-23 11:54:00,
2013-06-23 07:55:00,69.1,66.3,30.09,SW,225,2.0,3.1,91,0.00,,SKC,-99.99,VWS V14.01,2013-06-23 11:55:00,
2013-06-23 07:56:00,69.1,66.3,30.09,SW,225,2.7,3.1,91,0.00,,SKC,-99.99,VWS V14.01,2013-06-23 11:56:00,
2013-06-23 07:57:00,69.1,66.3,30.09,WSW,248,0.9,3.1,91,0.00,,SKC,-99.99,VWS V14.01,2013-06-23 11:57:00,
2013-06-23 07:58:00,69.3,66.5,30.09,SW,225,2.7,3.1,91,0.00,,SKC,-99.99,VWS V14.01,2013-06-23 11:58:00,
2013-06-23 07:59:00,69.3,66.5,30.09,West,270,0.0,3.1,91,0.00,,SKC,-99.99,VWS V14.01,2013-06-23 11:59:00,
2013-06-23 08:00:00,69.4,66.7,30.09,West,270,0.0,3.1,91,0.00,,SKC,-99.99,VWS V14.01,2013-06-23 12:00:00,
2013-06-23 08:01:00,69.4,66.7,30.09,West,270,2.5,3.1,91,0.00,,SKC,-99.99,VWS V14.01,2013-06-23 12:01:00,
2013-06-23 08:02:00,69.4,66.7,30.09,WSW,248,2.5,2.9,91,0.00,,SKC,-99.99,VWS V14.01,2013-06-23 12:02:00,
2013-06-23 08:03:00,69.6,66.9,30.09,SW,225,2.0,2.7,91,0.00,,SKC,-99.99,VWS V14.01,2013-06-23 12:03:00,
2013-06-23 08:04:00,69.6,66.9,30.09,WSW,248,2.7,2.7,91,0.00,,SKC,-99.99,VWS V14.01,2013-06-23 12:04:00,
2013-06-23 08:05:00,69.8,67.1,30.09,West,270,2.2,2.7,91,0.00,,SKC,-99.99,VWS V14.01,2013-06-23 12:05:00,
2013-06-23 08:06:00,70.0,66.9,30.09,SW,225,2.7,2.7,90,0.00,,SKC,-99.99,VWS V14.01,2013-06-23 12:06:00,
2013-06-23 08:07:00,70.2,67.1,30.09,WSW,248,2.5,2.7,90,0.00,,SKC,-99.99,VWS V14.01,2013-06-23 12:07:00,
2013-06-23 08:08:00,70.2,67.1,30.09,SW,225,1.3,2.7,90,0.00,,SKC,-99.99,VWS V14.01,2013-06-23 12:08:00,
2013-06-23 08:09:00,70.2,67.1,30.09,SW,225,2.9,2.9,90,0.00,,SKC,-99.99,VWS V14.01,2013-06-23 12:09:00,
2013-06-23 08:10:00,70.3,67.3,30.09,WSW,248,3.1,3.1,90,0.00,,SKC,-99.99,VWS V14.01,2013-06-23 12:10:00,
2013-06-23 08:11:00,70.3,67.3,30.09,WSW,248,2.0,3.1,90,0.00,,SKC,-99.99,VWS V14.01,2013-06-23 12:11:00,
2013-06-23 08:12:00,70.3,67.3,30.09,SW,225,1.6,3.1,90,0.00,,SKC,-99.99,VWS V14.01,2013-06-23 12:12:00,
2013-06-23 08:13:00,70.5,67.4,30.09,SW,225,3.1,3.1,90,0.00,,SKC,-99.99,VWS V14.01,2013-06-23 12:13:00,
2013-06-23 08:14:00,70.5,67.4,30.09,SW,225,2.7,3.1,90,0.00,,SKC,-99.99,VWS V14.01,2013-06-23 12:14:00,
2013-06-23 08:15:00,70.7,67.6,30.09,West,270,3.1,3.1,90,0.00,,SKC,-99.99,VWS V14.01,2013-06-23 12:15:00,
2013-06-23 08:16:00,70.9,67.8,30.09,SW,225,2.5,3.1,90,0.00,,SKC,-99.99,VWS V14.01,2013-06-23 12:16:00,
2013-06-23 08:17:00,70.9,67.8,30.09,West,270,3.4,3.4,90,0.00,,SKC,-99.99,VWS V14.01,2013-06-23 12:17:00,
2013-06-23 08:18:00,71.1,68.0,30.09,SW,225,2.7,3.4,90,0.00,,SKC,-99.99,VWS V14.01,2013-06-23 12:18:00,
2013-06-23 08:19:00,71.1,67.7,30.09,West,270,3.1,3.4,89,0.00,,SKC,-99.99,VWS V14.01,2013-06-23 12:19:00,
2013-06-23 08:20:00,71.2,67.8,30.09,West,270,2.5,3.4,89,0.00,,SKC,-99.99,VWS V14.01,2013-06-23 12:20:00,
2013-06-23 08:21:00,71.6,68.2,30.09,SW,225,2.2,3.4,89,0.00,,SKC,-99.99,VWS V14.01,2013-06-23 12:21:00,
2013-06-23 08:22:00,71.6,68.2,30.09,SW,225,2.0,3.4,89,0.00,,SKC,-99.99,VWS V14.01,2013-06-23 12:22:00,
2013-06-23 08:23:00,71.8,68.0,30.09,SW,225,2.9,3.4,88,0.00,,SKC,-99.99,VWS V14.01,2013-06-23 12:23:00,
2013-06-23 08:24:00,71.8,68.0,30.09,SW,225,3.8,3.8,88,0.00,,SKC,-99.99,VWS V14.01,2013-06-23 12:24:00,
2013-06-23 08:25:00,72.0,68.2,30.09,WSW,248,4.3,4.3,88,0.00,,SKC,-99.99,VWS V14.01,2013-06-23 12:25:00,
2013-06-23 08:26:00,72.1,68.4,30.09,West,270,3.1,4.3,88,0.00,,SKC,-99.99,VWS V14.01,2013-06-23 12:26:00,
2013-06-23 08:28:00,72.3,68.6,30.09,WSW,248,1.6,4.3,88,0.00,,SKC,-99.99,VWS V14.01,2013-06-23 12:28:00,
2013-06-23 08:29:00,72.5,68.8,30.09,SW,225,2.5,4.3,88,0.00,,SKC,-99.99,VWS V14.01,2013-06-23 12:29:00,
2013-06-23 08:30:00,72.5,68.4,30.09,SW,225,2.0,4.3,87,0.00,,SKC,-99.99,VWS V14.01,2013-06-23 12:30:00,
2013-06-23 08:31:00,72.7,68.6,30.09,SW,225,3.4,4.3,87,0.00,,SKC,-99.99,VWS V14.01,2013-06-23 12:31:00,
2013-06-23 08:32:00,72.7,68.6,30.09,WSW,248,3.1,4.3,87,0.00,,SKC,-99.99,VWS V14.01,2013-06-23 12:32:00,
2013-06-23 08:33:00,72.7,68.6,30.09,WSW,248,3.6,4.3,87,0.00,,SKC,-99.99,VWS V14.01,2013-06-23 12:33:00,
2013-06-23 08:34:00,72.9,68.8,30.09,West,270,3.1,4.3,87,0.00,,SKC,-99.99,VWS V14.01,2013-06-23 12:34:00,
2013-06-23 08:35:00,72.9,68.4,30.09,West,270,3.1,4.3,86,0.00,,SKC,-99.99,VWS V14.01,2013-06-23 12:35:00,
2013-06-23 08:36:00,73.2,68.8,30.09,SW,225,2.9,4.3,86,0.00,,SKC,-99.99,VWS V14.01,2013-06-23 12:36:00,
2013-06-23 08:37:00,73.2,68.8,30.09,WSW,248,2.5,4.3,86,0.00,,SKC,-99.99,VWS V14.01,2013-06-23 12:37:00,
2013-06-23 08:38:00,73.4,68.6,30.09,West,270,2.9,4.3,85,0.00,,SKC,-99.99,VWS V14.01,2013-06-23 12:38:00,
2013-06-23 08:39:00,73.4,68.6,30.09,West,270,3.6,4.3,85,0.00,,SKC,-99.99,VWS V14.01,2013-06-23 12:39:00,
2013-06-23 08:40:00,73.6,68.8,30.09,SW,225,3.4,4.3,85,0.00,,SKC,-99.99,VWS V14.01,2013-06-23 12:40:00,
2013-06-23 08:41:00,73.8,68.6,30.09,West,270,0.0,4.3,84,0.00,,SKC,-99.99,VWS V14.01,2013-06-23 12:41:00,
2013-06-23 08:42:00,73.8,69.0,30.09,SW,225,3.4,4.3,85,0.00,,SKC,-99.99,VWS V14.01,2013-06-23 12:42:00,
2013-06-23 08:43:00,73.9,69.2,30.09,WSW,248,4.7,4.7,85,0.00,,SKC,-99.99,VWS V14.01,2013-06-23 12:43:00,
2013-06-23 08:44:00,73.9,69.2,30.09,WSW,248,4.7,4.7,85,0.00,,SKC,-99.99,VWS V14.01,2013-06-23 12:44:00,
2013-06-23 08:45:00,74.1,69.3,30.09,SW,225,3.4,4.7,85,0.00,,SKC,-99.99,VWS V14.01,2013-06-23 12:45:00,
2013-06-23 08:46:00,74.3,69.2,30.09,SW,225,3.6,4.7,84,0.00,,SKC,-99.99,VWS V14.01,2013-06-23 12:46:00,
2013-06-23 08:47:00,74.3,69.2,30.09,SW,225,2.7,4.7,84,0.00,,SKC,-99.99,VWS V14.01,2013-06-23 12:47:00,
2013-06-23 08:48:00,74.5,69.3,30.09,West,270,2.5,4.7,84,0.00,,SKC,-99.99,VWS V14.01,2013-06-23 12:48:00,
2013-06-23 08:49:00,74.7,69.2,30.09,SW,225,1.6,4.7,83,0.00,,SKC,-99.99,VWS V14.01,2013-06-23 12:49:00,
2013-06-23 08:50:00,74.7,69.5,30.09,WSW,248,2.9,4.7,84,0.00,,SKC,-99.99,VWS V14.01,2013-06-23 12:50:00,
2013-06-23 08:51:00,74.7,68.8,30.09,NW,315,3.4,4.7,82,0.00,,SKC,-99.99,VWS V14.01,2013-06-23 12:51:00,
2013-06-23 08:52:00,74.8,69.3,30.09,West,270,2.9,4.7,83,0.00,,SKC,-99.99,VWS V14.01,2013-06-23 12:52:00,
2013-06-23 08:53:00,74.8,69.3,30.09,West,270,5.6,5.6,83,0.00,,SKC,-99.99,VWS V14.01,2013-06-23 12:53:00,
2013-06-23 08:54:00,75.0,69.5,30.09,West,270,4.9,5.6,83,0.00,,SKC,-99.99,VWS V14.01,2013-06-23 12:54:00,
2013-06-23 08:55:00,75.0,69.2,30.09,WSW,248,3.1,5.6,82,0.00,,SKC,-99.99,VWS V14.01,2013-06-23 12:55:00,
2013-06-23 08:56:00,75.2,69.3,30.09,WSW,248,2.7,5.6,82,0.00,,SKC,-99.99,VWS V14.01,2013-06-23 12:56:00,
2013-06-23 08:57:00,75.4,69.5,30.09,SW,225,2.7,5.6,82,0.00,,SKC,-99.99,VWS V14.01,2013-06-23 12:57:00,
2013-06-23 08:58:00,75.4,69.2,30.09,SW,225,2.9,5.6,81,0.00,,SKC,-99.99,VWS V14.01,2013-06-23 12:58:00,
2013-06-23 08:59:00,75.6,69.3,30.09,WSW,248,4.3,5.6,81,0.00,,SKC,-99.99,VWS V14.01,2013-06-23 12:59:00,
2013-06-23 09:00:00,75.6,69.3,30.09,West,270,3.4,5.6,81,0.00,,SKC,-99.99,VWS V14.01,2013-06-23 13:00:00,
2013-06-23 09:01:00,75.7,69.5,30.09,West,270,3.6,5.6,81,0.00,,SKC,-99.99,VWS V14.01,2013-06-23 13:01:00,
2013-06-23 09:02:00,75.7,69.1,30.09,West,270,3.1,5.6,80,0.00,,SKC,-99.99,VWS V14.01,2013-06-23 13:02:00,
2013-06-23 09:03:00,75.9,69.3,30.09,WSW,248,2.5,5.6,80,0.00,,SKC,-99.99,VWS V14.01,2013-06-23 13:03:00,
2013-06-23 09:04:00,75.9,69.3,30.09,WSW,248,2.0,5.6,80,0.00,,SKC,-99.99,VWS V14.01,2013-06-23 13:04:00,
2013-06-23 09:05:00,75.9,69.3,30.09,West,270,2.2,5.6,80,0.00,,SKC,-99.99,VWS V14.01,2013-06-23 13:05:00,
2013-06-23 09:06:00,76.1,69.1,30.09,SW,225,2.0,5.6,79,0.00,,SKC,-99.99,VWS V14.01,2013-06-23 13:06:00,
2013-06-23 09:07:00,76.3,69.3,30.09,West,270,2.0,5.6,79,0.00,,SKC,-99.99,VWS V14.01,2013-06-23 13:07:00,
2013-06-23 09:08:00,76.3,69.3,30.09,SW,225,0.0,5.6,79,0.00,,SKC,-99.99,VWS V14.01,2013-06-23 13:08:00,
2013-06-23 09:09:00,76.5,69.8,30.09,West,270,0.0,5.6,80,0.00,,SKC,-99.99,VWS V14.01,2013-06-23 13:09:00,
2013-06-23 09:10:00,76.5,69.5,30.09,West,270,0.0,5.6,79,0.00,,SKC,-99.99,VWS V14.01,2013-06-23 13:10:00,
2013-06-23 09:11:00,76.5,69.5,30.09,West,270,3.1,5.6,79,0.00,,SKC,-99.99,VWS V14.01,2013-06-23 13:11:00,
2013-06-23 09:12:00,76.5,69.5,30.09,WSW,248,4.3,5.6,79,0.00,,SKC,-99.99,VWS V14.01,2013-06-23 13:12:00,
2013-06-23 09:13:00,76.6,69.6,30.09,SW,225,3.1,4.9,79,0.00,,SKC,-99.99,VWS V14.01,2013-06-23 13:13:00,
2013-06-23 09:14:00,76.8,69.4,30.09,WSW,248,3.6,4.3,78,0.00,,SKC,-99.99,VWS V14.01,2013-06-23 13:14:00,
2013-06-23 09:15:00,76.8,69.4,30.09,WSW,248,3.6,4.3,78,0.00,,SKC,-99.99,VWS V14.01,2013-06-23 13:15:00,
2013-06-23 09:16:00,76.8,69.4,30.09,WSW,248,4.7,4.7,78,0.00,,SKC,-99.99,VWS V14.01,2013-06-23 13:16:00,
2013-06-23 09:17:00,77.2,69.4,30.09,WSW,248,3.6,4.7,77,0.00,,SKC,-99.99,VWS V14.01,2013-06-23 13:17:00,
2013-06-23 09:18:00,77.2,69.4,30.09,SW,225,2.7,4.7,77,0.00,,SKC,-99.99,VWS V14.01,2013-06-23 13:18:00,
2013-06-23 09:19:00,77.4,70.0,30.09,WSW,248,3.4,4.7,78,0.00,,SKC,-99.99,VWS V14.01,2013-06-23 13:19:00,
2013-06-23 09:20:00,77.5,70.1,30.09,West,270,3.1,4.7,78,0.00,,SKC,-99.99,VWS V14.01,2013-06-23 13:20:00,
2013-06-23 09:21:00,77.5,69.8,30.09,SW,225,3.4,4.7,77,0.00,,SKC,-99.99,VWS V14.01,2013-06-23 13:21:00,
2013-06-23 09:22:00,77.7,69.9,30.09,SW,225,3.6,4.7,77,0.00,,SKC,-99.99,VWS V14.01,2013-06-23 13:22:00,
2013-06-23 09:23:00,77.7,69.6,30.09,WSW,248,4.3,4.7,76,0.00,,SKC,-99.99,VWS V14.01,2013-06-23 13:23:00,
2013-06-23 09:38:00,77.7,69.6,30.09,WSW,248,3.1,4.7,76,0.00,,SKC,-99.99,VWS V14.01,2013-06-23 13:38:00,
2013-06-23 09:40:00,78.4,69.5,30.09,West,270,4.3,4.9,74,0.00,,SKC,-99.99,VWS V14.01,2013-06-23 13:40:00,
2013-06-23 09:42:00,78.6,70.4,30.09,West,270,3.8,3.8,76,0.00,,SKC,-99.99,VWS V14.01,2013-06-23 13:42:00,
2013-06-23 09:43:00,78.8,70.2,30.09,West,270,3.1,3.8,75,0.00,,SKC,-99.99,VWS V14.01,2013-06-23 13:43:00,
2013-06-23 09:48:00,79.2,70.2,30.09,West,270,3.1,3.1,74,0.00,,SKC,-99.99,VWS V14.01,2013-06-23 13:48:00,
2013-06-23 09:53:00,79.5,70.5,30.09,WNW,292,3.6,3.6,74,0.00,,SKC,-99.99,VWS V14.01,2013-06-23 13:53:00,
2013-06-23 09:58:00,79.7,70.7,30.09,West,270,2.9,3.8,74,0.00,,SKC,-99.99,VWS V14.01,2013-06-23 13:58:00,
2013-06-23 10:03:00,80.2,71.2,30.09,West,270,2.9,4.3,74,0.00,,SKC,-99.99,VWS V14.01,2013-06-23 14:03:00,
2013-06-23 10:08:00,80.8,70.9,30.09,West,270,0.9,2.9,72,0.00,,SKC,-99.99,VWS V14.01,2013-06-23 14:08:00,
2013-06-23 10:13:00,81.1,72.1,30.09,West,270,3.1,4.3,74,0.00,,SKC,-99.99,VWS V14.01,2013-06-23 14:13:00,
2013-06-23 10:18:00,81.5,71.6,30.09,WNW,292,3.8,4.3,72,0.00,,SKC,-99.99,VWS V14.01,2013-06-23 14:18:00,
2013-06-23 10:23:00,82.0,72.5,30.09,WSW,248,3.6,3.6,73,0.00,,SKC,-99.99,VWS V14.01,2013-06-23 14:23:00,
2013-06-23 10:29:00,82.4,70.8,30.09,WSW,248,3.1,4.9,68,0.00,,SKC,-99.99,VWS V14.01,2013-06-23 14:29:00,
2013-06-23 10:34:00,82.6,70.5,30.09,WSW,248,1.6,2.7,67,0.00,,SKC,-99.99,VWS V14.01,2013-06-23 14:34:00,
2013-06-23 10:39:00,82.8,70.2,30.09,WSW,248,3.4,3.4,66,0.00,,SKC,-99.99,VWS V14.01,2013-06-23 14:39:00,
2013-06-23 10:44:00,82.9,70.4,30.09,SE,135,1.6,2.9,66,0.00,,SKC,-99.99,VWS V14.01,2013-06-23 14:44:00,
2013-06-23 10:49:00,83.1,70.6,30.09,SW,225,4.0,4.0,66,0.00,,SKC,-99.99,VWS V14.01,2013-06-23 14:49:00,
2013-06-23 10:54:00,83.5,70.5,30.09,South,180,0.9,4.3,65,0.00,,SKC,-99.99,VWS V14.01,2013-06-23 14:54:00,
2013-06-23 10:59:00,83.3,68.0,30.09,SW,225,3.8,4.0,60,0.00,,SKC,-99.99,VWS V14.01,2013-06-23 14:59:00,
2013-06-23 11:04:00,83.8,69.9,30.09,SW,225,2.5,3.8,63,0.00,,SKC,-99.99,VWS V14.01,2013-06-23 15:04:00,
2013-06-23 11:09:00,84.2,69.8,30.09,WSW,248,3.8,4.0,62,0.00,,SKC,-99.99,VWS V14.01,2013-06-23 15:09:00,
2013-06-23 11:14:00,84.6,70.1,30.09,SW,225,5.6,5.6,62,0.00,,SKC,-99.99,VWS V14.01,2013-06-23 15:14:00,
2013-06-23 11:19:00,85.1,71.1,30.09,SE,135,3.6,3.6,63,0.00,,SKC,-99.99,VWS V14.01,2013-06-23 15:19:00,
2013-06-23 11:24:00,85.3,70.8,30.09,SE,135,5.4,5.4,62,0.00,,SKC,-99.99,VWS V14.01,2013-06-23 15:24:00,
2013-06-23 11:29:00,85.5,71.4,30.09,SW,225,2.7,3.8,63,0.00,,SKC,-99.99,VWS V14.01,2013-06-23 15:29:00,
2013-06-23 11:34:00,85.5,71.4,30.09,NW,315,2.7,4.9,63,0.00,,SKC,-99.99,VWS V14.01,2013-06-23 15:34:00,
2013-06-23 11:39:00,85.5,70.5,30.09,West,270,1.1,2.0,61,0.00,,SKC,-99.99,VWS V14.01,2013-06-23 15:39:00,
2013-06-23 11:44:00,85.5,71.4,30.09,South,180,0.9,2.5,63,0.00,,SKC,-99.99,VWS V14.01,2013-06-23 15:44:00,
2013-06-23 11:49:00,85.5,70.5,30.09,SW,225,2.0,3.6,61,0.00,,SKC,-99.99,VWS V14.01,2013-06-23 15:49:00,
2013-06-23 11:54:00,85.3,70.3,30.09,South,180,0.9,2.9,61,0.00,,SKC,-99.99,VWS V14.01,2013-06-23 15:54:00,
2013-06-23 11:59:00,85.5,70.0,30.09,South,180,1.1,1.6,60,0.00,,SKC,-99.99,VWS V14.01,2013-06-23 15:59:00,
2013-06-23 12:04:00,85.6,71.6,30.09,WSW,248,0.0,4.9,63,0.00,,SKC,-99.99,VWS V14.01,2013-06-23 16:04:00,
2013-06-23 12:09:00,85.8,70.8,30.09,SW,225,3.4,4.3,61,0.00,,SKC,-99.99,VWS V14.01,2013-06-23 16:09:00,
2013-06-23 12:14:00,86.2,72.1,30.09,East,90,6.0,7.4,63,0.00,,SKC,-99.99,VWS V14.01,2013-06-23 16:14:00,
2013-06-23 12:20:00,86.0,71.0,30.09,SE,135,2.5,5.8,61,0.00,,SKC,-99.99,VWS V14.01,2013-06-23 16:20:00,
2013-06-23 12:25:00,86.2,70.7,30.09,ESE,112,4.9,7.4,60,0.00,,SKC,-99.99,VWS V14.01,2013-06-23 16:25:00,
2013-06-23 12:30:00,86.0,71.0,30.06,East,90,2.7,6.0,61,0.00,,SKC,-99.99,VWS V14.01,2013-06-23 16:30:00,
2013-06-23 12:35:00,86.0,71.5,30.06,North,0,3.6,3.8,62,0.00,,SKC,-99.99,VWS V14.01,2013-06-23 16:35:00,
2013-06-23 12:40:00,86.0,72.4,30.06,ENE,68,3.1,7.6,64,0.00,,SKC,-99.99,VWS V14.01,2013-06-23 16:40:00,
2013-06-23 12:45:00,86.0,71.5,30.06,South,180,5.6,5.6,62,0.00,,SKC,-99.99,VWS V14.01,2013-06-23 16:45:00,
2013-06-23 12:50:00,85.8,71.3,30.06,ENE,68,2.5,6.3,62,0.00,,SKC,-99.99,VWS V14.01,2013-06-23 16:50:00,
2013-06-23 12:55:00,85.6,71.6,30.06,East,90,6.5,7.4,63,0.00,,SKC,-99.99,VWS V14.01,2013-06-23 16:55:00,
2013-06-23 12:57:00,85.6,71.6,30.06,SE,135,2.2,5.8,63,0.00,,SKC,-99.99,VWS V14.01,2013-06-23 16:57:00,
2013-06-23 12:58:00,85.6,71.6,30.06,East,90,1.1,2.2,63,0.00,,SKC,-99.99,VWS V14.01,2013-06-23 16:58:00,
2013-06-23 13:03:00,85.6,71.6,30.06,South,180,3.6,6.5,63,0.00,,SKC,-99.99,VWS V14.01,2013-06-23 17:03:00,
2013-06-23 13:08:00,85.5,71.4,30.06,ESE,112,2.9,4.3,63,0.00,,SKC,-99.99,VWS V14.01,2013-06-23 17:08:00,
2013-06-23 13:13:00,85.1,71.1,30.06,West,270,0.0,4.0,63,0.00,,SKC,-99.99,VWS V14.01,2013-06-23 17:13:00,
2013-06-23 13:18:00,84.9,70.5,30.06,NNW,338,1.6,2.9,62,0.00,,SKC,-99.99,VWS V14.01,2013-06-23 17:18:00,
2013-06-23 13:23:00,84.9,70.9,30.06,West,270,1.6,3.4,63,0.00,,SKC,-99.99,VWS V14.01,2013-06-23 17:23:00,
2013-06-23 13:29:00,84.9,70.5,30.06,ESE,112,3.1,4.7,62,0.00,,SKC,-99.99,VWS V14.01,2013-06-23 17:29:00,
2013-06-23 13:34:00,84.9,70.9,30.06,SSE,158,6.5,7.4,63,0.00,,SKC,-99.99,VWS V14.01,2013-06-23 17:34:00,
2013-06-23 13:39:00,84.7,70.8,30.06,SSE,158,7.8,9.2,63,0.00,,SKC,-99.99,VWS V14.01,2013-06-23 17:39:00,
2013-06-23 13:44:00,84.7,70.8,30.06,East,90,4.0,6.0,63,0.00,,SKC,-99.99,VWS V14.01,2013-06-23 17:44:00,
2013-06-23 13:49:00,84.4,70.4,30.06,East,90,6.3,9.6,63,0.00,,SKC,-99.99,VWS V14.01,2013-06-23 17:49:00,
2013-06-23 13:54:00,84.0,70.5,30.06,ENE,68,2.9,5.6,64,0.00,,SKC,-99.99,VWS V14.01,2013-06-23 17:54:00,
2013-06-23 13:59:00,83.7,70.2,30.06,SE,135,6.5,7.2,64,0.00,,SKC,-99.99,VWS V14.01,2013-06-23 17:59:00,
2013-06-23 14:04:00,83.5,70.0,30.06,SE,135,0.0,6.0,64,0.00,,SKC,-99.99,VWS V14.01,2013-06-23 18:04:00,
2013-06-23 14:09:00,83.3,69.9,30.06,ESE,112,2.9,8.1,64,0.00,,SKC,-99.99,VWS V14.01,2013-06-23 18:09:00,
2013-06-23 14:14:00,82.9,69.5,30.06,ESE,112,5.4,5.4,64,0.00,,SKC,-99.99,VWS V14.01,2013-06-23 18:14:00,
2013-06-23 14:19:00,82.8,69.3,30.06,East,90,2.9,4.3,64,0.00,,SKC,-99.99,VWS V14.01,2013-06-23 18:19:00,
2013-06-23 14:24:00,82.4,69.5,30.06,SSE,158,7.6,8.5,65,0.00,,SKC,-99.99,VWS V14.01,2013-06-23 18:24:00,
2013-06-23 14:29:00,82.4,69.5,30.06,ENE,68,1.3,4.9,65,0.00,,SKC,-99.99,VWS V14.01,2013-06-23 18:29:00,
2013-06-23 14:34:00,82.2,69.7,30.06,SW,225,6.0,6.0,66,0.00,,SKC,-99.99,VWS V14.01,2013-06-23 18:34:00,
2013-06-23 14:39:00,82.2,70.2,30.06,SSW,202,2.0,4.3,67,0.00,,SKC,-99.99,VWS V14.01,2013-06-23 18:39:00,
2013-06-23 14:44:00,82.2,70.6,30.03,SSE,158,5.4,10.1,68,0.00,,SKC,-99.99,VWS V14.01,2013-06-23 18:44:00,
2013-06-23 14:49:00,82.0,69.6,30.03,West,270,3.1,8.7,66,0.00,,SKC,-99.99,VWS V14.01,2013-06-23 18:49:00,
2013-06-23 14:54:00,81.9,69.8,30.03,SW,225,3.4,4.9,67,0.00,,SKC,-99.99,VWS V14.01,2013-06-23 18:54:00,
2013-06-23 14:59:00,81.7,69.7,30.03,SW,225,2.9,4.9,67,0.00,,SKC,-99.99,VWS V14.01,2013-06-23 18:59:00,
2013-06-23 15:04:00,81.5,69.5,30.03,SE,135,2.5,9.0,67,0.00,,SKC,-99.99,VWS V14.01,2013-06-23 19:04:00,
2013-06-23 15:09:00,81.7,70.1,30.03,East,90,2.5,4.7,68,0.00,,SKC,-99.99,VWS V14.01,2013-06-23 19:09:00,
2013-06-23 15:14:00,81.5,69.9,30.03,NE,45,3.4,6.3,68,0.00,,SKC,-99.99,VWS V14.01,2013-06-23 19:14:00,
2013-06-23 15:19:00,81.3,69.8,30.03,NE,45,6.3,6.3,68,0.00,,SKC,-99.99,VWS V14.01,2013-06-23 19:19:00,
2013-06-23 15:24:00,81.1,69.2,30.03,South,180,1.3,6.9,67,0.00,,SKC,-99.99,VWS V14.01,2013-06-23 19:24:00,
2013-06-23 15:29:00,81.1,69.6,30.00,SE,135,3.6,6.5,68,0.00,,SKC,-99.99,VWS V14.01,2013-06-23 19:29:00,
2013-06-23 15:34:00,81.1,69.6,30.00,SE,135,6.5,6.5,68,0.00,,SKC,-99.99,VWS V14.01,2013-06-23 19:34:00,
2013-06-23 15:39:00,81.0,69.4,30.00,South,180,5.4,5.8,68,0.00,,SKC,-99.99,VWS V14.01,2013-06-23 19:39:00,
2013-06-23 15:44:00,81.0,69.8,30.00,NE,45,3.6,7.2,69,0.00,,SKC,-99.99,VWS V14.01,2013-06-23 19:44:00,
2013-06-23 15:49:00,80.8,69.7,30.00,SE,135,6.0,6.0,69,0.00,,SKC,-99.99,VWS V14.01,2013-06-23 19:49:00,
2013-06-23 15:54:00,80.6,69.9,30.00,ENE,68,2.9,6.5,70,0.00,,SKC,-99.99,VWS V14.01,2013-06-23 19:54:00,
2013-06-23 15:59:00,80.6,69.9,30.03,East,90,7.6,7.8,70,0.00,,SKC,-99.99,VWS V14.01,2013-06-23 19:59:00,
2013-06-23 16:04:00,80.4,70.2,30.03,SW,225,3.1,5.4,71,0.00,,SKC,-99.99,VWS V14.01,2013-06-23 20:04:00,
2013-06-23 16:09:00,80.4,71.0,30.03,East,90,8.1,8.7,73,0.00,,SKC,-99.99,VWS V14.01,2013-06-23 20:09:00,
2013-06-23 16:14:00,80.4,71.0,30.03,SE,135,10.1,10.1,73,0.00,,SKC,-99.99,VWS V14.01,2013-06-23 20:14:00,
2013-06-23 16:19:00,80.2,70.8,30.03,NE,45,2.7,10.5,73,0.00,,SKC,-99.99,VWS V14.01,2013-06-23 20:19:00,
2013-06-23 16:24:00,80.1,70.6,30.03,East,90,4.0,6.3,73,0.00,,SKC,-99.99,VWS V14.01,2013-06-23 20:24:00,
2013-06-23 16:29:00,79.9,70.5,30.03,WSW,248,3.4,7.6,73,0.00,,SKC,-99.99,VWS V14.01,2013-06-23 20:29:00,
2013-06-23 16:34:00,79.7,70.3,30.03,East,90,6.5,6.5,73,0.00,,SKC,-99.99,VWS V14.01,2013-06-23 20:34:00,
2013-06-23 16:39:00,79.7,70.7,30.03,West,270,3.6,5.8,74,0.00,,SKC,-99.99,VWS V14.01,2013-06-23 20:39:00,
2013-06-23 16:44:00,79.3,70.7,30.03,NE,45,2.5,3.1,75,0.00,,SKC,-99.99,VWS V14.01,2013-06-23 20:44:00,
2013-06-23 16:49:00,79.3,70.7,30.03,East,90,3.6,4.9,75,0.00,,SKC,-99.99,VWS V14.01,2013-06-23 20:49:00,
2013-06-23 16:54:00,79.2,70.6,30.03,NE,45,3.6,7.4,75,0.00,,SKC,-99.99,VWS V14.01,2013-06-23 20:54:00,
2013-06-23 16:59:00,79.2,70.9,30.03,SE,135,3.4,6.3,76,0.00,,SKC,-99.99,VWS V14.01,2013-06-23 20:59:00,
2013-06-23 17:04:00,78.8,70.6,30.03,East,90,5.8,7.6,76,0.00,,SKC,-99.99,VWS V14.01,2013-06-23 21:04:00,
2013-06-23 17:09:00,78.6,70.4,30.03,NW,315,6.0,7.2,76,0.00,,SKC,-99.99,VWS V14.01,2013-06-23 21:09:00,
2013-06-23 17:14:00,78.6,70.8,30.03,East,90,2.9,3.4,77,0.00,,SKC,-99.99,VWS V14.01,2013-06-23 21:14:00,
2013-06-23 17:19:00,78.6,70.4,30.03,SSE,158,3.8,8.7,76,0.00,,SKC,-99.99,VWS V14.01,2013-06-23 21:19:00,
2013-06-23 17:24:00,78.6,70.8,30.03,SE,135,3.8,3.8,77,0.00,,SKC,-99.99,VWS V14.01,2013-06-23 21:24:00,
2013-06-23 17:30:00,78.4,70.6,30.00,NE,45,2.5,6.3,77,0.00,,SKC,-99.99,VWS V14.01,2013-06-23 21:30:00,
2013-06-23 17:35:00,78.4,71.0,30.00,East,90,5.6,6.7,78,0.00,,SKC,-99.99,VWS V14.01,2013-06-23 21:35:00,
2013-06-23 17:39:00,78.4,70.6,30.00,NE,45,4.7,7.4,77,0.00,,SKC,-99.99,VWS V14.01,2013-06-23 21:39:00,
2013-06-23 17:45:00,78.3,70.5,30.00,SSW,202,3.6,6.5,77,0.00,,SKC,-99.99,VWS V14.01,2013-06-23 21:45:00,
2013-06-23 17:50:00,78.3,70.8,30.00,SE,135,4.0,4.9,78,0.00,,SKC,-99.99,VWS V14.01,2013-06-23 21:50:00,
2013-06-23 17:55:00,78.3,70.8,30.00,ESE,112,6.5,6.5,78,0.00,,SKC,-99.99,VWS V14.01,2013-06-23 21:55:00,
2013-06-23 18:00:00,78.3,71.2,30.00,ESE,112,4.3,4.3,79,0.00,,SKC,-99.99,VWS V14.01,2013-06-23 22:00:00,
2013-06-23 18:05:00,78.3,71.2,30.00,East,90,3.1,6.0,79,0.00,,SKC,-99.99,VWS V14.01,2013-06-23 22:05:00,
2013-06-23 18:10:00,78.3,71.2,30.00,SE,135,4.3,5.8,79,0.00,,SKC,-99.99,VWS V14.01,2013-06-23 22:10:00,
2013-06-23 18:15:00,78.1,71.4,30.00,WSW,248,3.1,3.1,80,0.00,,SKC,-99.99,VWS V14.01,2013-06-23 22:15:00,
2013-06-23 18:20:00,78.1,71.4,30.00,WNW,292,2.0,4.0,80,0.00,,SKC,-99.99,VWS V14.01,2013-06-23 22:20:00,
2013-06-23 18:25:00,77.9,71.2,30.00,NNW,338,4.9,4.9,80,0.00,,SKC,-99.99,VWS V14.01,2013-06-23 22:25:00,
2013-06-23 18:30:00,77.7,71.1,30.00,ESE,112,4.7,5.4,80,0.00,,SKC,-99.99,VWS V14.01,2013-06-23 22:30:00,
2013-06-23 18:35:00,77.5,71.2,30.00,SSW,202,4.0,5.6,81,0.00,,SKC,-99.99,VWS V14.01,2013-06-23 22:35:00,
2013-06-23 18:40:00,77.4,71.1,30.00,SW,225,5.6,5.6,81,0.00,,SKC,-99.99,VWS V14.01,2013-06-23 22:40:00,
2013-06-23 18:45:00,77.2,71.3,30.03,West,270,3.1,7.4,82,0.00,,SKC,-99.99,VWS V14.01,2013-06-23 22:45:00,
2013-06-23 18:50:00,76.8,70.9,30.03,WNW,292,2.9,5.6,82,0.00,,SKC,-99.99,VWS V14.01,2013-06-23 22:50:00,
2013-06-23 18:55:00,76.6,71.1,30.03,WSW,248,1.6,7.2,83,0.00,,SKC,-99.99,VWS V14.01,2013-06-23 22:55:00,
2013-06-23 19:00:00,76.3,70.4,30.03,SW,225,2.7,3.4,82,0.00,,SKC,-99.99,VWS V14.01,2013-06-23 23:00:00,
2013-06-23 19:05:00,76.1,70.6,30.03,SW,225,5.4,5.4,83,0.00,,SKC,-99.99,VWS V14.01,2013-06-23 23:05:00,
2013-06-23 19:10:00,75.7,70.2,30.03,WSW,248,4.0,5.8,83,0.00,,SKC,-99.99,VWS V14.01,2013-06-23 23:10:00,
2013-06-23 19:15:00,75.6,70.0,30.03,SSE,158,6.3,6.3,83,0.00,,SKC,-99.99,VWS V14.01,2013-06-23 23:15:00,
2013-06-23 19:20:00,75.2,69.7,30.03,SW,225,2.0,3.8,83,0.00,,SKC,-99.99,VWS V14.01,2013-06-23 23:20:00,
2013-06-23 19:25:00,75.0,69.9,30.03,West,270,0.0,4.7,84,0.00,,SKC,-99.99,VWS V14.01,2013-06-23 23:25:00,
2013-06-23 19:30:00,75.0,70.2,30.00,West,270,2.2,4.3,85,0.00,,SKC,-99.99,VWS V14.01,2013-06-23 23:30:00,
2013-06-23 19:35:00,74.8,70.0,30.00,NE,45,2.0,4.9,85,0.00,,SKC,-99.99,VWS V14.01,2013-06-23 23:35:00,
2013-06-23 19:40:00,74.7,69.5,30.00,SW,225,2.0,3.6,84,0.00,,SKC,-99.99,VWS V14.01,2013-06-23 23:40:00,
2013-06-23 19:45:00,74.5,69.7,30.00,ESE,112,2.0,6.3,85,0.00,,SKC,-99.99,VWS V14.01,2013-06-23 23:45:00,
2013-06-23 19:50:00,74.3,69.8,30.00,East,90,1.3,5.6,86,0.00,,SKC,-99.99,VWS V14.01,2013-06-23 23:50:00,
2013-06-23 19:55:00,74.3,69.5,30.00,West,270,3.1,7.6,85,0.00,,SKC,-99.99,VWS V14.01,2013-06-23 23:55:00,
2013-06-23 20:00:00,74.1,69.7,30.03,SE,135,1.1,6.0,86,0.00,,SKC,-99.99,VWS V14.01,2013-06-24 00:00:00,
2013-06-23 20:05:00,73.9,69.8,30.03,West,270,0.0,3.4,87,0.00,,SKC,-99.99,VWS V14.01,2013-06-24 00:05:00,
2013-06-23 20:10:00,73.8,69.7,30.03,NNE,22,2.0,4.0,87,0.00,,SKC,-99.99,VWS V14.01,2013-06-24 00:10:00,
2013-06-23 20:15:00,73.6,69.5,30.03,East,90,4.3,4.3,87,0.00,,SKC,-99.99,VWS V14.01,2013-06-24 00:15:00,
2013-06-23 20:20:00,73.4,69.6,30.03,ENE,68,2.0,3.8,88,0.00,,SKC,-99.99,VWS V14.01,2013-06-24 00:20:00,
2013-06-23 20:25:00,73.2,69.5,30.03,SW,225,1.3,2.0,88,0.00,,SKC,-99.99,VWS V14.01,2013-06-24 00:25:00,
2013-06-23 20:30:00,73.0,69.3,30.03,West,270,0.0,2.0,88,0.00,,SKC,-99.99,VWS V14.01,2013-06-24 00:30:00,
2013-06-23 20:35:00,72.9,69.4,30.03,ENE,68,5.8,5.8,89,0.00,,SKC,-99.99,VWS V14.01,2013-06-24 00:35:00,
2013-06-23 20:40:00,72.7,69.3,30.03,East,90,1.1,1.1,89,0.00,,SKC,-99.99,VWS V14.01,2013-06-24 00:40:00,
2013-06-23 20:45:00,72.7,69.6,30.03,NNE,22,3.8,4.0,90,0.00,,SKC,-99.99,VWS V14.01,2013-06-24 00:45:00,
2013-06-23 20:50:00,72.7,69.6,30.03,WSW,248,3.1,4.3,90,0.00,,SKC,-99.99,VWS V14.01,2013-06-24 00:50:00,
2013-06-23 20:55:00,72.7,69.6,30.03,SW,225,1.6,3.4,90,0.00,,SKC,-99.99,VWS V14.01,2013-06-24 00:55:00,
2013-06-23 21:00:00,72.7,69.6,30.03,WSW,248,0.0,1.6,90,0.00,,SKC,-99.99,VWS V14.01,2013-06-24 01:00:00,
2013-06-23 21:05:00,72.7,69.6,30.03,SSW,202,1.1,2.7,90,0.00,,SKC,-99.99,VWS V14.01,2013-06-24 01:05:00,
2013-06-23 21:10:00,72.9,69.8,30.03,West,270,0.9,3.6,90,0.00,,SKC,-99.99,VWS V14.01,2013-06-24 01:10:00,
2013-06-23 21:15:00,72.9,69.8,30.03,ENE,68,2.5,4.0,90,0.00,,SKC,-99.99,VWS V14.01,2013-06-24 01:15:00,
2013-06-23 21:20:00,72.9,69.8,30.03,WNW,292,2.7,5.4,90,0.00,,SKC,-99.99,VWS V14.01,2013-06-24 01:20:00,
2013-06-23 21:25:00,72.9,69.8,30.03,NE,45,1.1,2.0,90,0.00,,SKC,-99.99,VWS V14.01,2013-06-24 01:25:00,
2013-06-23 21:30:00,72.9,69.8,30.03,SW,225,2.5,2.5,90,0.00,,SKC,-99.99,VWS V14.01,2013-06-24 01:30:00,
2013-06-23 21:35:00,72.7,69.6,30.03,SSE,158,5.8,5.8,90,0.00,,SKC,-99.99,VWS V14.01,2013-06-24 01:35:00,
2013-06-23 21:40:00,72.7,69.6,30.03,WSW,248,2.7,5.4,90,0.00,,SKC,-99.99,VWS V14.01,2013-06-24 01:40:00,
2013-06-23 21:45:00,72.7,69.9,30.03,NW,315,3.6,3.6,91,0.00,,SKC,-99.99,VWS V14.01,2013-06-24 01:45:00,
2013-06-23 21:50:00,72.7,69.9,30.03,SW,225,3.1,5.6,91,0.00,,SKC,-99.99,VWS V14.01,2013-06-24 01:50:00,
2013-06-23 21:55:00,72.5,69.7,30.03,West,270,0.0,2.7,91,0.00,,SKC,-99.99,VWS V14.01,2013-06-24 01:55:00,
2013-06-23 22:00:00,72.5,69.7,30.03,WSW,248,3.8,3.8,91,0.00,,SKC,-99.99,VWS V14.01,2013-06-24 02:00:00,
2013-06-23 22:01:00,72.5,69.7,30.03,WSW,248,3.4,4.9,91,0.00,,SKC,-99.99,VWS V14.01,2013-06-24 02:01:00,
2013-06-23 22:06:00,72.3,69.6,30.03,WSW,248,3.1,3.1,91,0.00,,SKC,-99.99,VWS V14.01,2013-06-24 02:06:00,
2013-06-23 22:11:00,72.3,69.6,30.03,WSW,248,0.0,2.7,91,0.00,,SKC,-99.99,VWS V14.01,2013-06-24 02:11:00,
2013-06-23 22:16:00,72.1,69.4,30.03,SW,225,0.0,2.2,91,0.00,,SKC,-99.99,VWS V14.01,2013-06-24 02:16:00,
2013-06-23 22:21:00,72.1,69.4,30.03,SW,225,2.7,4.3,91,0.00,,SKC,-99.99,VWS V14.01,2013-06-24 02:21:00,
2013-06-23 22:26:00,72.1,69.4,30.03,WSW,248,1.6,2.0,91,0.00,,SKC,-99.99,VWS V14.01,2013-06-24 02:26:00,
2013-06-23 22:31:00,72.1,69.4,30.03,WNW,292,2.0,3.8,91,0.00,,SKC,-99.99,VWS V14.01,2013-06-24 02:31:00,
2013-06-23 22:35:00,72.0,69.2,30.03,SW,225,3.1,4.0,91,0.00,,SKC,-99.99,VWS V14.01,2013-06-24 02:35:00,
2013-06-23 22:40:00,72.0,69.2,30.03,South,180,3.6,3.6,91,0.00,,SKC,-99.99,VWS V14.01,2013-06-24 02:40:00,
2013-06-23 22:45:00,72.0,69.2,30.03,SW,225,2.0,3.6,91,0.00,,SKC,-99.99,VWS V14.01,2013-06-24 02:45:00,
2013-06-23 22:50:00,71.8,69.0,30.03,South,180,1.1,2.7,91,0.00,,SKC,-99.99,VWS V14.01,2013-06-24 02:50:00,
2013-06-23 22:55:00,71.8,69.0,30.03,SW,225,1.1,5.6,91,0.00,,SKC,-99.99,VWS V14.01,2013-06-24 02:55:00,
2013-06-23 23:00:00,71.8,69.3,30.03,WSW,248,2.5,3.1,92,0.00,,SKC,-99.99,VWS V14.01,2013-06-24 03:00:00,
2013-06-23 23:06:00,71.6,68.8,30.03,NE,45,2.5,4.9,91,0.00,,SKC,-99.99,VWS V14.01,2013-06-24 03:06:00,
2013-06-23 23:10:00,71.6,69.2,30.03,ESE,112,3.8,7.2,92,0.00,,SKC,-99.99,VWS V14.01,2013-06-24 03:10:00,
2013-06-23 23:16:00,71.6,69.2,30.00,East,90,2.0,4.7,92,0.00,,SKC,-99.99,VWS V14.01,2013-06-24 03:16:00,
2013-06-23 23:21:00,71.4,69.0,30.00,NNE,22,2.5,6.0,92,0.00,,SKC,-99.99,VWS V14.01,2013-06-24 03:21:00,
2013-06-23 23:26:00,71.4,69.0,30.00,SE,135,2.9,4.7,92,0.00,,SKC,-99.99,VWS V14.01,2013-06-24 03:26:00,
2013-06-23 23:31:00,71.4,69.0,30.03,South,180,1.6,2.9,92,0.00,,SKC,-99.99,VWS V14.01,2013-06-24 03:31:00,
2013-06-23 23:36:00,71.4,69.0,30.03,SSW,202,2.2,4.3,92,0.00,,SKC,-99.99,VWS V14.01,2013-06-24 03:36:00,
2013-06-23 23:41:00,71.4,69.0,30.03,SSE,158,3.6,4.9,92,0.00,,SKC,-99.99,VWS V14.01,2013-06-24 03:41:00,
2013-06-23 23:46:00,71.4,69.0,30.00,SE,135,6.5,6.5,92,0.00,,SKC,-99.99,VWS V14.01,2013-06-24 03:46:00,
2013-06-23 23:51:00,71.4,69.0,30.00,NE,45,1.6,4.9,92,0.00,,SKC,-99.99,VWS V14.01,2013-06-24 03:51:00,
2013-06-23 23:56:00,71.2,68.8,30.00,ENE,68,0.0,3.6,92,0.00,,SKC,-99.99,VWS V14.01,2013-06-24 03:56:00,